Flight Track Log - Related Links

Times and Time Zones

All times are in EDT time to prevent confusion due to time zone crossing. See the UAL139 flight status page for this flight to view local times or setup timezone preferences in your user account.

Time Position Orientation Groundspeed Altitude Reporting Facility
EDT Latitude Longitude Course Direction KTS MPH feet Rate Location/Type
Thu 02:51:44 PM 39.8690 -104.6870 360° North 90 104  Level FlightAware ADS-B
Thu 02:52:05 PM 39.8840 -104.6870 360° North 171 197 5,200 9,818 Climbing FlightAware ADS-B
Thu 02:52:17 PM 39.8950 -104.6870 360° North 192 221 5,400 1,875 Climbing FlightAware ADS-B
Thu 02:52:37 PM 39.9120 -104.6870 360° North 194 223 6,200 2,571 Climbing FlightAware ADS-B
Thu 02:52:45 PM 39.9190 -104.6890 348° North 196 226 6,600 2,500 Climbing FlightAware ADS-B
Thu 02:52:49 PM 39.9230 -104.6910 339° North 200 230 6,700 750 Climbing FlightAware ADS-B
Thu 02:53:01 PM 39.9320 -104.7010 320° Northwest 220 253 6,800 750 Climbing FlightAware ADS-B
Thu 02:53:05 PM 39.9340 -104.7060 298° West 225 259 6,900 462 Climbing FlightAware ADS-B
Thu 02:53:14 PM 39.9360 -104.7170 283° West 240 276 6,900 1,400 Level FlightAware ADS-B
Thu 02:53:35 PM 39.9360 -104.7500 270° West 258 297 7,600 1,946 Climbing FlightAware ADS-B
Thu 02:53:51 PM 39.9370 -104.7760 273° West 273 314 8,100 2,348 Climbing FlightAware ADS-B
Thu 02:54:21 PM 39.9300 -104.8250 259° West 278 320 9,400 2,471 Climbing FlightAware ADS-B
Thu 02:54:59 PM 39.9130 -104.8850 250° West 294 338 10,900 2,267 Climbing FlightAware ADS-B
Thu 02:55:06 PM 39.9087 -104.8970 245° Southwest 302 348 11,100 1,231 Climbing FlightAware ADS-B (EGNT / NCL)
Thu 02:55:38 PM 39.8933 -104.9455 247° West 333 383 11,700 1,059 Climbing FlightAware ADS-B (EGNT / NCL)
Thu 02:55:57 PM 39.8847 -104.9922 257° West 353 406 12,000 1,080 Climbing FlightAware ADS-B (EGNT / NCL)
Thu 02:56:28 PM 39.8838 -105.0579 269° West 379 436 12,600 1,574 Climbing FlightAware ADS-B (EGNT / NCL)
Thu 02:56:58 PM 39.8833 -105.1281 269° West 390 449 13,600 2,100 Climbing FlightAware ADS-B (EGNT / NCL)
Thu 02:57:28 PM 39.8826 -105.1897 269° West 396 456 14,700 3,478 Climbing FlightAware ADS-B (EGNT / NCL)
Thu 02:58:07 PM 39.8824 -105.2823 270° West 363 418 17,600 4,261 Climbing FlightAware ADS-B (EGNT / NCL)
Thu 02:58:37 PM 39.8911 -105.3521 279° West 346 398 19,600 2,870 Climbing FlightAware ADS-B (EGNT / NCL)
Thu 02:59:16 PM 39.9109 -105.4300 288° West 349 402 20,900 1,391 Climbing FlightAware ADS-B (EGNT / NCL)
Thu 02:59:46 PM 39.9250 -105.4856 288° West 373 429 21,200 774 Climbing FlightAware ADS-B (EGNT / NCL)
Thu 03:00:18 PM 39.9445 -105.5626 288° West 390 449 21,700 857 Climbing FlightAware ADS-B (EGNT / NCL)
Thu 03:00:49 PM 39.9584 -105.6176 288° West 411 473 22,100 900 Climbing FlightAware ADS-B (EGNT / NCL)
Thu 03:01:18 PM 39.9728 -105.7026 283° West 420 483 22,600 871 Climbing FlightAware ADS-B (EGNT / NCL)
Thu 03:01:51 PM 39.9730 -105.7890 270° West 434 499 23,000 845 Climbing FlightAware ADS-B
Thu 03:02:29 PM 39.9728 -105.8793 270° West 448 516 23,600 1,200 Climbing FlightAware ADS-B (EGNT / NCL)
Thu 03:03:01 PM 39.9780 -105.9760 274° West 451 519 24,400 1,538 Climbing FlightAware ADS-B
Thu 03:03:08 PM 39.9789 -105.9953 274° West 452 520 24,600 1,529 Climbing FlightAware ADS-B (EGNT / NCL)
Thu 03:03:52 PM 39.9853 -106.1107 274° West 456 525 25,700 1,380 Climbing FlightAware ADS-B (EGNT / NCL)
Thu 03:04:48 PM 40.0039 -106.2686 279° West 459 528 26,900 1,483 Climbing FlightAware ADS-B (EGNT / NCL)
Thu 03:05:21 PM 40.0160 -106.3560 280° West 452 520 27,900 1,853 Climbing FlightAware ADS-B
Thu 03:05:56 PM 40.0290 -106.4490 280° West 448 516 29,000 1,333 Climbing FlightAware ADS-B
Thu 03:06:33 PM 40.0430 -106.5460 281° West 455 524 29,500 1,151 Climbing FlightAware ADS-B
Thu 03:07:09 PM 40.0570 -106.6450 280° West 454 522 30,400 1,412 Climbing FlightAware ADS-B
Thu 03:07:41 PM 40.0680 -106.7280 280° West 452 520 31,100 1,412 Climbing FlightAware ADS-B
Thu 03:08:17 PM 40.0820 -106.8260 281° West 449 517 32,000 1,371 Climbing FlightAware ADS-B
Thu 03:08:51 PM 40.0940 -106.9150 280° West 446 513 32,700 1,182 Climbing FlightAware ADS-B
Thu 03:09:23 PM 40.1060 -107.0020 280° West 447 514 33,300 1,029 Climbing FlightAware ADS-B
Thu 03:10:01 PM 40.1200 -107.1050 280° West 449 517 33,900 880 Climbing FlightAware ADS-B
Thu 03:10:38 PM 40.1330 -107.1990 280° West 449 517 34,400 960 Climbing FlightAware ADS-B
Thu 03:11:16 PM 40.1466 -107.3039 280° West 448 516 35,100 1,029 Climbing FlightAware ADS-B
Thu 03:11:48 PM 40.1579 -107.3893 280° West 445 512 35,600 871 Climbing FlightAware ADS-B
Thu 03:12:18 PM 40.1676 -107.4626 280° West 444 511 36,000 387 Climbing FlightAware ADS-B
Thu 03:12:50 PM 40.1785 -107.5450 280° West 445 512 36,000  Level FlightAware ADS-B
Thu 03:13:20 PM 40.1900 -107.6331 280° West 447 514 36,000  Level FlightAware ADS-B
Thu 03:13:51 PM 40.1997 -107.7071 280° West 448 516 36,000  Level FlightAware ADS-B
Thu 03:14:22 PM 40.2115 -107.7986 280° West 450 518 36,000  Level FlightAware ADS-B
Thu 03:14:53 PM 40.2215 -107.8770 280° West 452 520 36,000  Level FlightAware ADS-B
Thu 03:15:24 PM 40.2328 -107.9648 280° West 453 521 36,000  Level FlightAware ADS-B
Thu 03:16:00 PM 40.2450 -108.0615 279° West 454 522 36,000  Level FlightAware ADS-B
Thu 03:16:35 PM 40.2564 -108.1520 279° West 457 526 36,000  Level FlightAware ADS-B
Thu 03:17:06 PM 40.2673 -108.2389 279° West 459 528 36,000  Level FlightAware ADS-B
Thu 03:17:37 PM 40.2781 -108.3263 279° West 458 527 36,000  Level FlightAware ADS-B
Thu 03:18:09 PM 40.2879 -108.4055 279° West 458 527 36,000  Level FlightAware ADS-B
Thu 03:18:39 PM 40.2990 -108.4952 279° West 459 528 36,000  Level FlightAware ADS-B
Thu 03:19:09 PM 40.3092 -108.5784 279° West 458 527 36,000  Level FlightAware ADS-B
Thu 03:19:44 PM 40.3208 -108.6743 279° West 461 531 36,000  Level FlightAware ADS-B
Thu 03:20:14 PM 40.3303 -108.7532 279° West 462 532 36,000  Level FlightAware ADS-B
Thu 03:20:48 PM 40.3418 -108.8497 279° West 459 528 36,000  Level FlightAware ADS-B
Thu 03:21:18 PM 40.3514 -108.9296 279° West 460 529 36,000  Level FlightAware ADS-B
Thu 03:21:51 PM 40.3613 -109.0137 279° West 460 529 36,000  Level FlightAware ADS-B
Thu 03:22:21 PM 40.3720 -109.1054 279° West 458 527 36,000  Level FlightAware ADS-B
Thu 03:22:51 PM 40.3809 -109.1816 279° West 458 527 36,000  Level FlightAware ADS-B
Thu 03:23:21 PM 40.3909 -109.2672 279° West 458 527 36,000  Level FlightAware ADS-B
Thu 03:23:51 PM 40.4004 -109.3499 279° West 457 526 36,000  Level FlightAware ADS-B
Thu 03:24:34 PM 40.4130 -109.4650 278° West 459 528 36,000  Level FlightAware ADS-B
Thu 03:25:07 PM 40.4240 -109.5610 279° West 459 528 36,000  Level FlightAware ADS-B
Thu 03:25:19 PM 40.4266 -109.5814 280° West 460 529 36,000  Level FlightAware ADS-B
Thu 03:26:19 PM 40.4460 -109.7580 278° West 463 533 36,000  Level FlightAware ADS-B
Thu 03:26:53 PM 40.4570 -109.8530 279° West 466 536 36,000  Level FlightAware ADS-B
Thu 03:27:31 PM 40.4670 -109.9450 278° West 466 536 36,000  Level FlightAware ADS-B
Thu 03:28:09 PM 40.4805 -110.0692 278° West 469 540 36,000  Level FlightAware ADS-B
Thu 03:28:39 PM 40.4881 -110.1399 278° West 469 540 36,000  Level FlightAware ADS-B
Thu 03:29:10 PM 40.4986 -110.2383 278° West 468 539 36,000  Level FlightAware ADS-B
Thu 03:29:39 PM 40.5073 -110.3190 278° West 464 534 36,000  Level FlightAware ADS-B
Thu 03:29:49 PM 40.5091 -110.3366 278° West 466 536 36,000  Level FlightAware ADS-B
Thu 03:30:09 PM 40.5163 -110.4040 278° West 465 535 36,000  Level FlightAware ADS-B
Thu 03:30:22 PM 40.5196 -110.4361 278° West 464 534 36,000  Level FlightAware ADS-B
Thu 03:30:40 PM 40.5251 -110.4900 278° West 463 533 36,000  Level FlightAware ADS-B
Thu 03:31:04 PM 40.5305 -110.5402 278° West 461 531 36,000  Level FlightAware ADS-B
Thu 03:31:10 PM 40.5341 -110.5750 278° West 460 529 36,000  Level FlightAware ADS-B
Thu 03:31:35 PM 40.5408 -110.6396 278° West 458 527 36,000  Level FlightAware ADS-B
Thu 03:31:40 PM 40.5427 -110.6580 278° West 458 527 36,000  Level FlightAware ADS-B
Thu 03:32:12 PM 40.5516 -110.7440 278° West 462 532 36,000  Level FlightAware ADS-B
Thu 03:32:42 PM 40.5600 -110.8280 278° West 464 534 36,000  Level FlightAware ADS-B
Thu 03:33:02 PM 40.5656 -110.8839 278° West 465 535 36,000  Level FlightAware ADS-B
Thu 03:33:12 PM 40.5684 -110.9120 277° West 464 534 36,000  Level FlightAware ADS-B
Thu 03:33:50 PM 40.5791 -111.0180 278° West 466 536 36,000  Level FlightAware ADS-B
Thu 03:34:00 PM 40.5818 -111.0457 277° West 467 537 36,000  Level FlightAware ADS-B
Thu 03:34:35 PM 40.5917 -111.1460 277° West 467 537 36,000  Level FlightAware ADS-B
Thu 03:34:38 PM 40.5908 -111.1356 97° East 467 537 36,000  Level FlightAware ADS-B
Thu 03:35:05 PM 40.6001 -111.2310 277° West 469 540 36,000  Level FlightAware ADS-B
Thu 03:35:13 PM 40.5946 -111.1744 97° East 468 539 36,000  Level FlightAware ADS-B
Thu 03:35:35 PM 40.6084 -111.3160 277° West 469 540 36,000  Level FlightAware ADS-B
Thu 03:36:06 PM 40.6165 -111.4010 277° West 468 539 36,000  Level FlightAware ADS-B
Thu 03:36:32 PM 40.6226 -111.4648 277° West 470 541 36,000  Level FlightAware ADS-B
Thu 03:36:36 PM 40.6246 -111.4850 277° West 466 536 36,000  Level FlightAware ADS-B
Thu 03:36:42 PM 40.6253 -111.4924 277° West 470 541 36,000  Level FlightAware ADS-B
Thu 03:37:07 PM 40.6330 -111.5730 277° West 465 535 36,000  Level FlightAware ADS-B
Thu 03:37:44 PM 40.6425 -111.6750 277° West 464 534 36,000  Level FlightAware ADS-B
Thu 03:37:55 PM 40.6455 -111.7062 277° West 467 537 36,000  Level FlightAware ADS-B
Thu 03:38:14 PM 40.6505 -111.7600 277° West 470 541 36,000  Level FlightAware ADS-B
Thu 03:38:44 PM 40.6584 -111.8460 277° West 471 542 36,000  Level FlightAware ADS-B
Thu 03:38:46 PM 40.6588 -111.8490 279° West 472 543 36,000  Level FlightAware ADS-B
Thu 03:39:14 PM 40.6664 -111.9310 277° West 469 540 36,000  Level FlightAware ADS-B
Thu 03:39:44 PM 40.6742 -112.0170 277° West 469 540 36,000  Level FlightAware ADS-B
Thu 03:40:17 PM 40.6826 -112.1100 277° West 471 542 36,000  Level FlightAware ADS-B
Thu 03:40:48 PM 40.6904 -112.1970 277° West 473 544 36,000  Level FlightAware ADS-B
Thu 03:40:59 PM 40.6934 -112.2300 277° West 474 545 36,000  Level FlightAware ADS-B
Thu 03:41:18 PM 40.6981 -112.2840 277° West 473 544 36,000  Level FlightAware ADS-B
Thu 03:41:48 PM 40.7058 -112.3710 277° West 474 545 36,000  Level FlightAware ADS-B
Thu 03:42:11 PM 40.7106 -112.4262 277° West 474 545 36,000  Level FlightAware ADS-B
Thu 03:42:20 PM 40.7136 -112.4610 277° West 474 545 36,000  Level FlightAware ADS-B
Thu 03:42:44 PM 40.7181 -112.5273 275° West 476 548 36,000  Level FlightAware ADS-B
Thu 03:42:50 PM 40.7190 -112.5480 273° West 477 549 36,000  Level FlightAware ADS-B
Thu 03:43:17 PM 40.7205 -112.6249 271° West 479 551 36,000  Level FlightAware ADS-B
Thu 03:43:20 PM 40.7206 -112.6350 271° West 479 551 36,000  Level FlightAware ADS-B
Thu 03:43:50 PM 40.7214 -112.7230 271° West 478 550 36,000  Level FlightAware ADS-B
Thu 03:44:17 PM 40.7222 -112.8006 271° West 479 551 36,000  Level FlightAware ADS-B
Thu 03:44:21 PM 40.7223 -112.8110 271° West 479 551 36,000  Level FlightAware ADS-B
Thu 03:44:51 PM 40.7230 -112.9000 271° West 479 551 36,000  Level FlightAware ADS-B
Thu 03:44:59 PM 40.7231 -112.9230 270° West 479 551 36,000  Level FlightAware ADS-B
Thu 03:45:22 PM 40.7236 -112.9890 271° West 478 550 36,000  Level FlightAware ADS-B
Thu 03:46:01 PM 40.7243 -113.1030 271° West 479 551 36,000  Level FlightAware ADS-B
Thu 03:46:32 PM 40.7247 -113.1930 270° West 480 552 36,000  Level FlightAware ADS-B
Thu 03:47:07 PM 40.7252 -113.2950 270° West 479 551 36,000  Level FlightAware ADS-B
Thu 03:47:14 PM 40.7253 -113.3134 270° West 480 552 36,000  Level FlightAware ADS-B
Thu 03:47:37 PM 40.7256 -113.3820 270° West 482 555 36,000  Level FlightAware ADS-B
Thu 03:48:06 PM 40.7258 -113.4616 270° West 483 556 36,000  Level FlightAware ADS-B
Thu 03:48:08 PM 40.7258 -113.4730 270° West 483 556 36,000  Level FlightAware ADS-B
Thu 03:48:36 PM 40.7260 -113.5540 270° West 483 556 36,000  Level FlightAware ADS-B
Thu 03:48:39 PM 40.7260 -113.5650 270° West 483 556 36,000  Level FlightAware ADS-B
Thu 03:49:09 PM 40.7260 -113.6530 270° West 483 556 36,000  Level FlightAware ADS-B
Thu 03:49:11 PM 40.7261 -113.6574 271° West 483 556 36,000  Level FlightAware ADS-B
Thu 03:49:46 PM 40.7261 -113.7620 270° West 483 556 36,000  Level FlightAware ADS-B
Thu 03:49:55 PM 40.7260 -113.7910 270° West 483 556 36,000  Level FlightAware ADS-B
Thu 03:50:14 PM 40.7247 -113.8331 268° West 486 559 36,000  Level FlightAware ADS-B
Thu 03:50:27 PM 40.7226 -113.8830 267° West 488 562 36,000  Level FlightAware ADS-B
Thu 03:50:58 PM 40.7182 -113.9760 266° West 490 564 36,000  Level FlightAware ADS-B
Thu 03:51:04 PM 40.7176 -113.9890 267° West 491 565 36,000  Level FlightAware ADS-B
Thu 03:51:34 PM 40.7139 -114.0789 267° West 489 563 36,000  Level FlightAware ADS-B
Thu 03:52:04 PM 40.7101 -114.1720 267° West 492 566 36,000  Level FlightAware ADS-B
Thu 03:52:07 PM 40.7099 -114.1766 266° West 492 566 36,000  Level FlightAware ADS-B
Thu 03:52:34 PM 40.7065 -114.2620 267° West 493 567 36,000  Level FlightAware ADS-B
Thu 03:52:38 PM 40.7062 -114.2705 267° West 493 567 36,000  Level FlightAware ADS-B
Thu 03:53:04 PM 40.7030 -114.3520 267° West 491 565 36,000  Level FlightAware ADS-B
Thu 03:53:21 PM 40.7011 -114.3998 267° West 493 567 36,000  Level FlightAware ADS-B
Thu 03:53:36 PM 40.6992 -114.4450 267° West 494 568 36,000  Level FlightAware ADS-B
Thu 03:54:06 PM 40.6955 -114.5370 267° West 493 567 36,000  Level FlightAware ADS-B
Thu 03:54:22 PM 40.6940 -114.5727 267° West 493 567 36,000  Level FlightAware ADS-B
Thu 03:55:02 PM 40.6884 -114.7030 267° West 493 567 36,000  Level FlightAware ADS-B
Thu 03:55:17 PM 40.6863 -114.7489 267° West 495 570 36,000  Level FlightAware ADS-B
Thu 03:55:33 PM 40.6841 -114.7970 267° West 493 567 36,000  Level FlightAware ADS-B
Thu 03:56:03 PM 40.6801 -114.8870 267° West 493 567 36,000  Level FlightAware ADS-B
Thu 03:56:27 PM 40.6768 -114.9588 267° West 494 568 36,000  Level FlightAware ADS-B
Thu 03:56:33 PM 40.6759 -114.9770 266° West 494 568 36,000  Level FlightAware ADS-B
Thu 03:57:04 PM 40.6717 -115.0680 267° West 491 565 36,000  Level FlightAware ADS-B
Thu 03:57:35 PM 40.6672 -115.1620 266° West 490 564 36,000  Level FlightAware ADS-B
Thu 03:57:41 PM 40.6667 -115.1728 266° West 489 563 36,000  Level FlightAware ADS-B
Thu 03:58:11 PM 40.6621 -115.2680 266° West 492 566 36,000  Level FlightAware ADS-B
Thu 03:59:01 PM 40.6550 -115.4110 266° West 488 562 36,000  Level FlightAware ADS-B
Thu 03:59:36 PM 40.6500 -115.5060 266° West 488 562 36,000  Level FlightAware ADS-B
Thu 04:00:14 PM 40.6450 -115.6070 266° West 490 564 36,000  Level FlightAware ADS-B
Thu 04:00:56 PM 40.6390 -115.7130 266° West 490 564 36,000  Level FlightAware ADS-B
Thu 04:01:11 PM 40.6347 -115.8020 266° West 489 563 36,000  Level FlightAware ADS-B
Thu 04:01:52 PM 40.6281 -115.9230 266° West 492 566 36,000  Level FlightAware ADS-B
Thu 04:02:44 PM 40.6250 -115.9870 266° West 490 564 36,000  Level FlightAware ADS-B
Thu 04:03:20 PM 40.6200 -116.0780 266° West 490 564 36,000  Level FlightAware ADS-B
Thu 04:03:56 PM 40.6150 -116.1690 266° West 490 564 36,000  Level FlightAware ADS-B
Thu 04:04:32 PM 40.6100 -116.2600 266° West 490 564 36,000  Level FlightAware ADS-B
Thu 04:05:08 PM 40.6050 -116.3520 266° West 490 564 36,000  Level FlightAware ADS-B
Thu 04:05:44 PM 40.6010 -116.4430 267° West 490 564 36,000  Level FlightAware ADS-B
Thu 04:06:18 PM 40.5960 -116.5290 266° West 490 564 36,000  Level FlightAware ADS-B
Thu 04:06:54 PM 40.5910 -116.6200 266° West 490 564 36,000  Level FlightAware ADS-B
Thu 04:07:30 PM 40.5860 -116.7110 266° West 490 564 36,000  Level FlightAware ADS-B
Thu 04:08:06 PM 40.5810 -116.8020 266° West 490 564 36,000  Level FlightAware ADS-B
Thu 04:08:42 PM 40.5770 -116.8930 267° West 490 564 36,000  Level FlightAware ADS-B
Thu 04:09:19 PM 40.5720 -116.9870 266° West 490 564 36,000  Level FlightAware ADS-B
Thu 04:09:55 PM 40.5670 -117.0780 266° West 490 564 36,000  Level FlightAware ADS-B
Thu 04:11:27 PM 40.5199 -117.6444 264° West 496 571 36,000  Level FlightAware ADS-B
Thu 04:11:59 PM 40.5130 -117.7402 265° West 496 571 36,000  Level FlightAware ADS-B
Thu 04:12:39 PM 40.5049 -117.8521 265° West 496 571 36,000  Level FlightAware ADS-B
Thu 04:13:11 PM 40.4975 -117.9526 265° West 495 570 36,000  Level FlightAware ADS-B
Thu 04:13:51 PM 40.4883 -118.0751 264° West 495 570 36,000  Level FlightAware ADS-B
Thu 04:14:35 PM 40.4789 -118.1989 264° West 496 571 36,000  Level FlightAware ADS-B
Thu 04:15:05 PM 40.4717 -118.2933 264° West 496 571 36,000  Level FlightAware ADS-B
Thu 04:15:51 PM 40.4640 -118.4318 266° West 492 566 36,000  Level FlightAware ADS-B
Thu 04:16:21 PM 40.4622 -118.5123 268° West 493 567 36,000  Level FlightAware ADS-B
Thu 04:17:02 PM 40.4591 -118.6454 268° West 494 568 36,000  Level FlightAware ADS-B
Thu 04:17:32 PM 40.4569 -118.7364 268° West 495 570 36,000  Level FlightAware ADS-B
Thu 04:18:15 PM 40.4538 -118.8586 268° West 495 570 36,000  Level FlightAware ADS-B
Thu 04:18:57 PM 40.4510 -118.9620 268° West 495 570 36,000  Level FlightAware ADS-B
Thu 04:19:14 PM 40.4490 -119.0404 268° West 494 568 36,000  Level FlightAware ADS-B
Thu 04:20:05 PM 40.4452 -119.1824 268° West 496 571 36,000  Level FlightAware ADS-B
Thu 04:20:46 PM 40.4413 -119.3176 268° West 497 572 36,000  Level FlightAware ADS-B
Thu 04:21:17 PM 40.4388 -119.4019 268° West 497 572 36,000  Level FlightAware ADS-B
Thu 04:21:52 PM 40.4350 -119.5160 268° West 499 574 36,000  Level FlightAware ADS-B
Thu 04:22:11 PM 40.4335 -119.5725 268° West 499 574 36,000  Level FlightAware ADS-B
Thu 04:23:01 PM 40.4287 -119.7203 268° West 498 573 36,000  Level FlightAware ADS-B
Thu 04:23:36 PM 40.4250 -119.8310 268° West 501 577 36,000  Level FlightAware ADS-B
Thu 04:23:51 PM 40.4235 -119.8747 268° West 501 577 36,000  Level FlightAware ADS-B
Thu 04:24:46 PM 40.4181 -120.0323 267° West 501 577 36,000  Level FlightAware ADS-B
Thu 04:25:17 PM 40.4147 -120.1261 267° West 500 575 36,000  Level FlightAware ADS-B
Thu 04:26:03 PM 40.4095 -120.2686 267° West 498 573 36,000  Level FlightAware ADS-B
Thu 04:26:33 PM 40.4059 -120.3634 267° West 496 571 36,000  Level FlightAware ADS-B
Thu 04:27:04 PM 40.4020 -120.4510 267° West 494 568 36,000  Level FlightAware ADS-B
Thu 04:27:15 PM 40.4019 -120.4634 270° West 494 568 36,000  Level FlightAware ADS-B
Thu 04:27:45 PM 40.3974 -120.5785 267° West 494 568 36,000  Level FlightAware ADS-B
Thu 04:28:26 PM 40.3925 -120.6982 267° West 493 567 36,000  Level FlightAware ADS-B
Thu 04:28:57 PM 40.3890 -120.7816 267° West 494 568 36,000  Level FlightAware ADS-B
Thu 04:29:43 PM 40.3827 -120.9291 267° West 495 570 36,000  Level FlightAware ADS-B
Thu 04:30:13 PM 40.3791 -121.0117 267° West 497 572 36,000  Level FlightAware ADS-B
Thu 04:30:43 PM 40.3748 -121.1101 267° West 497 572 36,000  Level FlightAware ADS-B
Thu 04:31:13 PM 40.3708 -121.1972 267° West 497 572 36,000  Level FlightAware ADS-B
Thu 04:31:43 PM 40.3667 -121.2878 267° West 497 572 36,000  Level FlightAware ADS-B
Thu 04:32:23 PM 40.3608 -121.4107 266° West 498 573 36,000  Level FlightAware ADS-B
Thu 04:32:53 PM 40.3566 -121.5001 266° West 497 572 36,000  Level FlightAware ADS-B
Thu 04:33:33 PM 40.3519 -121.5956 266° West 498 573 36,000  Level FlightAware ADS-B
Thu 04:34:03 PM 40.3460 -121.7080 266° West 498 573 36,000  Level FlightAware ADS-B
Thu 04:34:15 PM 40.3453 -121.7290 267° West 498 573 36,000  Level FlightAware ADS-B
Thu 04:34:47 PM 40.3402 -121.8281 266° West 498 573 36,000  Level FlightAware ADS-B
Thu 04:35:27 PM 40.3333 -121.9633 266° West 498 573 36,000  Level FlightAware ADS-B
Thu 04:36:06 PM 40.3273 -122.0750 266° West 497 572 36,000  Level FlightAware ADS-B
Thu 04:36:37 PM 40.3230 -122.1559 266° West 496 571 36,000  Level FlightAware ADS-B
Thu 04:37:34 PM 40.3130 -122.3390 266° West 494 568 36,000  Level FlightAware ADS-B
Thu 04:38:09 PM 40.3070 -122.4460 266° West 495 570 36,000  Level FlightAware ADS-B
Thu 04:38:45 PM 40.3010 -122.5490 266° West 496 571 36,000  Level FlightAware ADS-B
Thu 04:39:10 PM 40.2965 -122.6192 265° West 498 573 36,000  Level FlightAware ADS-B
Thu 04:39:46 PM 40.2905 -122.7211 266° West 499 574 36,000  Level FlightAware ADS-B
Thu 04:40:29 PM 40.2820 -122.8630 266° West 498 573 36,000  Level FlightAware ADS-B
Thu 04:41:04 PM 40.2750 -122.9680 265° West 497 572 36,000  Level FlightAware ADS-B
Thu 04:41:39 PM 40.2690 -123.0700 266° West 497 572 36,000  Level FlightAware ADS-B
Thu 04:42:14 PM 40.2620 -123.1780 265° West 498 573 36,000  Level FlightAware ADS-B
Thu 04:42:50 PM 40.2550 -123.2830 265° West 498 573 36,000  Level FlightAware ADS-B
Thu 04:43:24 PM 40.2480 -123.3880 265° West 498 573 36,000  Level FlightAware ADS-B
Thu 04:44:04 PM 40.2410 -123.5020 265° West 499 574 36,000  Level FlightAware ADS-B
Thu 04:44:43 PM 40.2350 -123.6020 266° West 499 574 36,000  Level FlightAware ADS-B
Thu 04:45:21 PM 40.2300 -123.6990 266° West 499 574 36,000  Level FlightAware ADS-B
Thu 04:45:57 PM 40.2250 -123.7910 266° West 499 574 36,000  Level FlightAware ADS-B
Thu 04:46:40 PM 40.2080 -123.9750 263° West 36,000  Level FlightAware ADS-B
Thu 04:47:14 PM 40.2025 -124.0483 263° West 498 573 36,000 -63 Level Oakland Center
Thu 04:48:16 PM 40.1889 -124.2319 265° West 499 574 35,900  Descending Oakland Center
Thu 04:49:17 PM 40.1750 -124.4164 264° West 502 578 36,000  Climbing Oakland Center
Thu 04:50:19 PM 40.1625 -124.5969 265° West 498 573 35,900  Descending Oakland Center
Thu 04:51:20 PM 40.1458 -124.8136 264° West 499 574 36,000 49 Climbing Oakland Center
Thu 04:52:22 PM 40.1308 -124.9953 264° West 502 578 36,000 -48 Level Oakland Center
Thu 04:53:24 PM 40.1158 -125.1756 264° West 501 577 35,900 -49 Descending Oakland Center
Thu 04:54:25 PM 40.1003 -125.3564 264° West 502 578 35,900 49 Level Oakland Center
Thu 04:55:27 PM 40.0858 -125.5364 264° West 500 575 36,000 49 Climbing Oakland Center
Thu 04:56:28 PM 40.0700 -125.7147 263° West 497 572 36,000  Level Oakland Center
Thu 04:57:30 PM 40.0544 -125.8947 264° West 500 575 36,000  Level Oakland Center
Thu 04:58:31 PM 40.0386 -126.0747 264° West 501 577 36,000  Level Oakland Center
Thu 04:59:33 PM 40.0186 -126.2894 263° West 500 575 36,000 -48 Level Oakland Center
Thu 05:00:35 PM 40.0036 -126.4692 264° West 499 574 35,900 -49 Descending Oakland Center
Thu 05:01:36 PM 40.0144 -126.6467 292° West 500 575 35,900 32 Level Oakland Center
Thu 05:02:00 PM 40.0588 -126.6948 292° West  Level FlightAware Approximate
Thu 05:03:43 PM 40.1500 -127.0000 291° West 501 577 36,000  Level Oakland Oceanic (ODAPS)
Thu 05:04:51 PM 40.2167 -127.2000 291° West 501 577 36,000  Level Oakland Oceanic (ODAPS)
Thu 05:10:00 PM 40.4623 -128.0593 291° West 501 577 36,000  Level FlightAware Transoceanic
Thu 05:11:00 PM 40.5230 -128.2540 291° West 501 577 36,000  Level FlightAware Transoceanic
Thu 05:12:00 PM 40.5732 -128.4305 290° West 501 577 36,000  Level FlightAware Transoceanic
Thu 05:13:00 PM 40.6230 -128.6074 290° West 501 577 36,000  Level FlightAware Transoceanic
Thu 05:14:00 PM 40.6726 -128.7845 290° West 501 577 36,000  Level FlightAware Transoceanic
Thu 05:15:00 PM 40.7219 -128.9619 290° West 501 577 36,000  Level FlightAware Transoceanic
Thu 05:15:34 PM 40.7500 -129.0500 290° West 508 585 36,000  Level Oakland Oceanic (ODAPS)
Thu 05:16:00 PM 40.7710 -129.1395 290° West 501 577 36,000  Level FlightAware Transoceanic
Thu 05:17:00 PM 40.8198 -129.3174 290° West 501 577 36,000  Level FlightAware Transoceanic
Thu 05:18:00 PM 40.8682 -129.4956 290° West 501 577 36,000  Level FlightAware Transoceanic
Thu 05:19:00 PM 40.9165 -129.6740 290° West 501 577 36,000  Level FlightAware Transoceanic
Thu 05:20:00 PM 40.9644 -129.8527 289° West 501 577 36,000  Level FlightAware Transoceanic
Thu 05:21:00 PM 41.0230 -130.0672 289° West 508 585 36,000  Level FlightAware Transoceanic
Thu 05:22:00 PM 41.0676 -130.2376 289° West 508 585 36,000  Level FlightAware Transoceanic
Thu 05:23:00 PM 41.1120 -130.4082 289° West 508 585 36,000  Level FlightAware Transoceanic
Thu 05:24:00 PM 41.1561 -130.5790 289° West 508 585 36,000  Level FlightAware Transoceanic
Thu 05:25:00 PM 41.2000 -130.7500 280° West 508 585 36,000  Level FlightAware Transoceanic
Thu 05:25:23 PM 41.2000 -130.7500 280° West 499 574 36,000  Level Oakland Oceanic (ODAPS)
Thu 05:26:00 PM 41.2232 -130.9324 280° West 508 585 36,000  Level FlightAware Transoceanic
Thu 05:27:00 PM 41.2461 -131.1150 279° West 508 585 36,000  Level FlightAware Transoceanic
Thu 05:28:00 PM 41.2688 -131.2977 279° West 508 585 36,000  Level FlightAware Transoceanic
Thu 05:29:00 PM 41.2911 -131.4805 279° West 508 585 36,000  Level FlightAware Transoceanic
Thu 05:29:32 PM 41.3000 -131.5167 279° West 500 575 36,000  Level Oakland Oceanic (ODAPS)
Thu 05:30:00 PM 41.3131 -131.6635 279° West 508 585 36,000  Level FlightAware Transoceanic
Thu 05:31:00 PM 41.3349 -131.8466 279° West 499 574 36,000  Level FlightAware Transoceanic
Thu 05:32:00 PM 41.3564 -132.0297 279° West 499 574 36,000  Level FlightAware Transoceanic
Thu 05:33:00 PM 41.3776 -132.2130 279° West 499 574 36,000  Level FlightAware Transoceanic
Thu 05:34:00 PM 41.3984 -132.3965 279° West 499 574 36,000  Level FlightAware Transoceanic
Thu 05:35:00 PM 41.4190 -132.5800 278° West 499 574 36,000  Level FlightAware Transoceanic
Thu 05:36:00 PM 41.4466 -132.7946 278° West 500 575 36,000  Level FlightAware Transoceanic
Thu 05:37:00 PM 41.4664 -132.9776 278° West 500 575 36,000  Level FlightAware Transoceanic
Thu 05:38:00 PM 41.4858 -133.1607 278° West 500 575 36,000  Level FlightAware Transoceanic
Thu 05:39:00 PM 41.5050 -133.3439 278° West 500 575 36,000  Level FlightAware Transoceanic
Thu 05:40:00 PM 41.5239 -133.5273 278° West 500 575 36,000  Level FlightAware Transoceanic
Thu 05:41:00 PM 41.5426 -133.7107 278° West 500 575 36,000  Level FlightAware Transoceanic
Thu 05:42:00 PM 41.5609 -133.8943 278° West 500 575 36,000  Level FlightAware Transoceanic
Thu 05:43:00 PM 41.5789 -134.0779 277° West 500 575 36,000  Level FlightAware Transoceanic
Thu 05:43:23 PM 41.5833 -134.0667 277° West 498 573 36,000  Level Oakland Oceanic (ODAPS)
Thu 05:44:00 PM 41.5967 -134.2617 277° West 500 575 36,000  Level FlightAware Transoceanic
Thu 05:45:00 PM 41.6141 -134.4456 277° West 500 575 36,000  Level FlightAware Transoceanic
Thu 05:46:00 PM 41.6313 -134.6295 277° West 500 575 36,000  Level FlightAware Transoceanic
Thu 05:47:00 PM 41.6482 -134.8136 277° West 500 575 36,000  Level FlightAware Transoceanic
Thu 05:48:00 PM 41.6647 -134.9977 277° West 500 575 36,000  Level FlightAware Transoceanic
Thu 05:49:00 PM 41.6847 -135.1729 277° West 498 573 36,000  Level FlightAware Transoceanic
Thu 05:50:00 PM 41.7005 -135.3575 276° West 498 573 36,000  Level FlightAware Transoceanic
Thu 05:51:00 PM 41.7161 -135.5423 276° West 498 573 36,000  Level FlightAware Transoceanic
Thu 05:52:00 PM 41.7313 -135.7272 276° West 498 573 36,000  Level FlightAware Transoceanic
Thu 05:53:00 PM 41.7463 -135.9122 276° West 498 573 36,000  Level FlightAware Transoceanic
Thu 05:54:00 PM 41.7610 -136.0972 276° West 498 573 36,000  Level FlightAware Transoceanic
Thu 05:55:00 PM 41.7753 -136.2823 276° West 498 573 36,000  Level FlightAware Transoceanic
Thu 05:56:00 PM 41.7894 -136.4676 276° West 498 573 36,000  Level FlightAware Transoceanic
Thu 05:57:00 PM 41.8032 -136.6529 276° West 498 573 36,000  Level FlightAware Transoceanic
Thu 05:57:15 PM 41.8000 -136.6000 276° West 493 567 36,000  Level Oakland Oceanic (ODAPS)
Thu 05:58:00 PM 41.8167 -136.8382 276° West 498 573 36,000  Level FlightAware Transoceanic
Thu 05:59:00 PM 41.8298 -137.0237 275° West 498 573 36,000  Level FlightAware Transoceanic
Thu 06:00:00 PM 41.8427 -137.2092 275° West 498 573 36,000  Level FlightAware Transoceanic
Thu 06:01:00 PM 41.8553 -137.3948 275° West 498 573 36,000  Level FlightAware Transoceanic
Thu 06:02:00 PM 41.8676 -137.5805 275° West 498 573 36,000  Level FlightAware Transoceanic
Thu 06:03:00 PM 41.8740 -137.6713 275° West 493 567 36,000  Level FlightAware Transoceanic
Thu 06:04:00 PM 41.8853 -137.8501 275° West 493 567 36,000  Level FlightAware Transoceanic
Thu 06:05:00 PM 41.8964 -138.0289 275° West 493 567 36,000  Level FlightAware Transoceanic
Thu 06:06:00 PM 41.9072 -138.2079 275° West 493 567 36,000  Level FlightAware Transoceanic
Thu 06:07:00 PM 41.9178 -138.3868 274° West 493 567 36,000  Level FlightAware Transoceanic
Thu 06:08:00 PM 41.9280 -138.5659 274° West 493 567 36,000  Level FlightAware Transoceanic
Thu 06:09:00 PM 41.9380 -138.7449 274° West 493 567 36,000  Level FlightAware Transoceanic
Thu 06:10:00 PM 41.9477 -138.9241 274° West 493 567 36,000  Level FlightAware Transoceanic
Thu 06:11:00 PM 41.9571 -139.1033 274° West 493 567 36,000  Level FlightAware Transoceanic
Thu 06:11:25 PM 41.9500 -139.1167 275° West 494 568 36,000  Level Oakland Oceanic (ODAPS)
Thu 06:12:00 PM 41.9662 -139.2825 274° West 493 567 36,000  Level FlightAware Transoceanic
Thu 06:13:00 PM 41.9751 -139.4618 274° West 493 567 36,000  Level FlightAware Transoceanic
Thu 06:14:00 PM 41.9837 -139.6412 274° West 493 567 36,000  Level FlightAware Transoceanic
Thu 06:15:00 PM 41.9920 -139.8206 274° West 493 567 36,000  Level FlightAware Transoceanic
Thu 06:15:56 PM 42.0000 -140.0000 281° West 493 567 36,000  Level Oakland Oceanic (ODAPS)
Thu 06:16:00 PM 42.0000 -140.0000 281° West 493 567 36,000  Level FlightAware Transoceanic
Thu 06:17:00 PM 42.0263 -140.1819 281° West 494 568 36,000  Level FlightAware Transoceanic
Thu 06:18:00 PM 42.0524 -140.3640 281° West 494 568 36,000  Level FlightAware Transoceanic
Thu 06:19:00 PM 42.0782 -140.5462 281° West 494 568 36,000  Level FlightAware Transoceanic
Thu 06:20:00 PM 42.1036 -140.7285 281° West 494 568 36,000  Level FlightAware Transoceanic
Thu 06:21:00 PM 42.1288 -140.9110 280° West 494 568 36,000  Level FlightAware Transoceanic
Thu 06:22:00 PM 42.1537 -141.0937 280° West 493 567 36,000  Level FlightAware Transoceanic
Thu 06:23:00 PM 42.1783 -141.2765 280° West 493 567 36,000  Level FlightAware Transoceanic
Thu 06:24:00 PM 42.2026 -141.4594 280° West 493 567 36,000  Level FlightAware Transoceanic
Thu 06:25:00 PM 42.2266 -141.6425 280° West 493 567 36,000  Level FlightAware Transoceanic
Thu 06:25:00 PM 42.2333 -141.6500 280° West 489 563 36,000  Level Oakland Oceanic (ODAPS)
Thu 06:26:00 PM 42.2504 -141.8257 280° West 493 567 36,000  Level FlightAware Transoceanic
Thu 06:27:00 PM 42.2738 -142.0090 280° West 493 567 36,000  Level FlightAware Transoceanic
Thu 06:28:00 PM 42.2970 -142.1925 280° West 493 567 36,000  Level FlightAware Transoceanic
Thu 06:29:00 PM 42.3198 -142.3761 279° West 493 567 36,000  Level FlightAware Transoceanic
Thu 06:30:00 PM 42.3424 -142.5598 279° West 493 567 36,000  Level FlightAware Transoceanic
Thu 06:31:00 PM 42.3675 -142.7264 279° West 489 563 36,000  Level FlightAware Transoceanic
Thu 06:32:00 PM 42.3889 -142.9062 279° West 489 563 36,000  Level FlightAware Transoceanic
Thu 06:33:00 PM 42.4100 -143.0862 279° West 489 563 36,000  Level FlightAware Transoceanic
Thu 06:34:00 PM 42.4308 -143.2663 279° West 489 563 36,000  Level FlightAware Transoceanic
Thu 06:35:00 PM 42.4514 -143.4465 279° West 489 563 36,000  Level FlightAware Transoceanic
Thu 06:36:00 PM 42.4716 -143.6268 279° West 489 563 36,000  Level FlightAware Transoceanic
Thu 06:37:00 PM 42.4916 -143.8073 278° West 489 563 36,000  Level FlightAware Transoceanic
Thu 06:38:00 PM 42.5113 -143.9878 278° West 489 563 36,000 1,081 Level FlightAware Transoceanic
Thu 06:38:51 PM 42.5167 -144.1167 278° West 474 545 38,000  Climbing Oakland Oceanic (ODAPS)
Thu 06:39:00 PM 42.5307 -144.1685 278° West 489 563 36,000 -1,739 Descending FlightAware Transoceanic
Thu 06:40:00 PM 42.5498 -144.3492 278° West 489 563 36,000  Level FlightAware Transoceanic
Thu 06:41:00 PM 42.5686 -144.5301 278° West 489 563 36,000  Level FlightAware Transoceanic
Thu 06:42:00 PM 42.5872 -144.7111 278° West 489 563 36,000  Level FlightAware Transoceanic
Thu 06:43:00 PM 42.6055 -144.8922 278° West 489 563 36,000  Level FlightAware Transoceanic
Thu 06:44:00 PM 42.6235 -145.0734 278° West 489 563 36,000 1,000 Level FlightAware Transoceanic
Thu 06:45:00 PM 42.6269 -145.1791 278° West 474 545 38,000 1,000 Climbing FlightAware Transoceanic
Thu 06:46:00 PM 42.6443 -145.3565 278° West 474 545 38,000  Level FlightAware Transoceanic
Thu 06:47:00 PM 42.6614 -145.5341 277° West 474 545 38,000  Level FlightAware Transoceanic
Thu 06:48:00 PM 42.6783 -145.7117 277° West 474 545 38,000  Level FlightAware Transoceanic
Thu 06:49:00 PM 42.6949 -145.8894 277° West 474 545 38,000  Level FlightAware Transoceanic
Thu 06:50:00 PM 42.7112 -146.0672 277° West 474 545 38,000  Level FlightAware Transoceanic
Thu 06:51:00 PM 42.7272 -146.2451 277° West 474 545 38,000  Level FlightAware Transoceanic
Thu 06:52:00 PM 42.7430 -146.4232 277° West 474 545 38,000  Level FlightAware Transoceanic
Thu 06:52:43 PM 42.7667 -146.5833 276° West 478 550 38,000  Level Oakland Oceanic (ODAPS)
Thu 06:53:00 PM 42.7585 -146.6012 277° West 474 545 38,000  Level FlightAware Transoceanic
Thu 06:54:00 PM 42.7737 -146.7794 277° West 474 545 38,000  Level FlightAware Transoceanic
Thu 06:55:00 PM 42.7886 -146.9577 276° West 474 545 38,000  Level FlightAware Transoceanic
Thu 06:56:00 PM 42.8033 -147.1360 276° West 474 545 38,000  Level FlightAware Transoceanic
Thu 06:57:00 PM 42.8177 -147.3145 276° West 474 545 38,000  Level FlightAware Transoceanic
Thu 06:58:00 PM 42.8318 -147.4930 276° West 474 545 38,000  Level FlightAware Transoceanic
Thu 06:59:00 PM 42.8557 -147.7193 276° West 478 550 38,000  Level FlightAware Transoceanic
Thu 07:00:00 PM 42.8695 -147.9089 276° West 478 550 38,000  Level FlightAware Transoceanic
Thu 07:01:00 PM 42.8829 -148.0986 275° West 478 550 38,000  Level FlightAware Transoceanic
Thu 07:02:00 PM 42.8960 -148.2884 275° West 478 550 38,000  Level FlightAware Transoceanic
Thu 07:03:00 PM 42.9088 -148.4783 275° West 478 550 38,000  Level FlightAware Transoceanic
Thu 07:04:00 PM 42.9213 -148.6683 275° West 478 550 38,000  Level FlightAware Transoceanic
Thu 07:05:00 PM 42.9335 -148.8583 275° West 478 550 38,000  Level FlightAware Transoceanic
Thu 07:06:00 PM 42.9454 -149.0484 275° West 478 550 38,000  Level FlightAware Transoceanic
Thu 07:06:36 PM 42.9500 -149.0667 275° West 485 558 38,000  Level Oakland Oceanic (ODAPS)
Thu 07:07:00 PM 42.9569 -149.2386 275° West 478 550 38,000  Level FlightAware Transoceanic
Thu 07:08:00 PM 42.9682 -149.4288 275° West 478 550 38,000  Level FlightAware Transoceanic
Thu 07:09:00 PM 42.9791 -149.6192 274° West 478 550 38,000  Level FlightAware Transoceanic
Thu 07:10:00 PM 42.9897 -149.8096 274° West 478 550 38,000  Level FlightAware Transoceanic
Thu 07:11:00 PM 43.0000 -150.0000 273° West 478 550 38,000  Level FlightAware Transoceanic
Thu 07:11:54 PM 43.0000 -150.0000 273° West 477 549 38,000  Level Oakland Oceanic (ODAPS)
Thu 07:12:00 PM 43.0000 -150.0000 273° West 485 558 38,000  Level FlightAware Transoceanic
Thu 07:13:00 PM 43.0075 -150.1750 273° West 485 558 38,000  Level FlightAware Transoceanic
Thu 07:14:00 PM 43.0147 -150.3501 273° West 485 558 38,000  Level FlightAware Transoceanic
Thu 07:15:00 PM 43.0217 -150.5253 273° West 485 558 38,000  Level FlightAware Transoceanic
Thu 07:16:00 PM 43.0284 -150.7004 273° West 485 558 38,000  Level FlightAware Transoceanic
Thu 07:17:00 PM 43.0349 -150.8756 273° West 485 558 38,000  Level FlightAware Transoceanic
Thu 07:18:00 PM 43.0423 -151.0891 273° West 477 549 38,000  Level FlightAware Transoceanic
Thu 07:19:00 PM 43.0484 -151.2708 273° West 477 549 38,000  Level FlightAware Transoceanic
Thu 07:20:00 PM 43.0541 -151.4525 272° West 477 549 38,000  Level FlightAware Transoceanic
Thu 07:20:27 PM 43.0500 -151.5333 272° West 481 554 38,000  Level Oakland Oceanic (ODAPS)
Thu 07:21:00 PM 43.0596 -151.6342 272° West 477 549 38,000  Level FlightAware Transoceanic
Thu 07:22:00 PM 43.0648 -151.8159 272° West 477 549 38,000  Level FlightAware Transoceanic
Thu 07:23:00 PM 43.0697 -151.9977 272° West 477 549 38,000  Level FlightAware Transoceanic
Thu 07:24:00 PM 43.0743 -152.1795 272° West 477 549 38,000  Level FlightAware Transoceanic
Thu 07:25:00 PM 43.0787 -152.3614 272° West 477 549 38,000  Level FlightAware Transoceanic
Thu 07:26:00 PM 43.0784 -152.6138 272° West 481 554 38,000  Level FlightAware Transoceanic
Thu 07:27:00 PM 43.0821 -152.7939 272° West 481 554 38,000  Level FlightAware Transoceanic
Thu 07:28:00 PM 43.0856 -152.9741 271° West 481 554 38,000  Level FlightAware Transoceanic
Thu 07:29:00 PM 43.0888 -153.1543 271° West 481 554 38,000  Level FlightAware Transoceanic
Thu 07:30:00 PM 43.0917 -153.3345 271° West 481 554 38,000  Level FlightAware Transoceanic
Thu 07:31:00 PM 43.0943 -153.5148 271° West 481 554 38,000  Level FlightAware Transoceanic
Thu 07:32:00 PM 43.0966 -153.6950 271° West 481 554 38,000  Level FlightAware Transoceanic
Thu 07:33:00 PM 43.0987 -153.8753 271° West 481 554 38,000  Level FlightAware Transoceanic
Thu 07:34:00 PM 43.1004 -154.0556 271° West 481 554 38,000  Level FlightAware Transoceanic
Thu 07:34:20 PM 43.1000 -154.0667 271° West 492 566 38,000  Level Oakland Oceanic (ODAPS)
Thu 07:35:00 PM 43.1019 -154.2358 271° West 481 554 38,000  Level FlightAware Transoceanic
Thu 07:36:00 PM 43.1031 -154.4161 270° West 481 554 38,000  Level FlightAware Transoceanic
Thu 07:37:00 PM 43.1040 -154.5964 270° West 481 554 38,000  Level FlightAware Transoceanic
Thu 07:38:00 PM 43.1047 -154.7767 270° West 481 554 38,000  Level FlightAware Transoceanic
Thu 07:39:00 PM 43.1050 -154.9570 270° West 481 554 38,000  Level FlightAware Transoceanic
Thu 07:40:00 PM 43.1046 -155.1802 270° West 492 566 38,000  Level FlightAware Transoceanic
Thu 07:41:00 PM 43.1043 -155.3658 270° West 492 566 38,000  Level FlightAware Transoceanic
Thu 07:42:00 PM 43.1038 -155.5513 270° West 492 566 38,000  Level FlightAware Transoceanic
Thu 07:43:00 PM 43.1029 -155.7369 270° West 492 566 38,000  Level FlightAware Transoceanic
Thu 07:44:00 PM 43.1017 -155.9225 269° West 492 566 38,000  Level FlightAware Transoceanic
Thu 07:45:00 PM 43.1002 -156.1081 269° West 492 566 38,000  Level FlightAware Transoceanic
Thu 07:46:00 PM 43.0984 -156.2937 269° West 492 566 38,000  Level FlightAware Transoceanic
Thu 07:47:00 PM 43.0964 -156.4792 269° West 492 566 38,000  Level FlightAware Transoceanic
Thu 07:48:00 PM 43.0940 -156.6647 269° West 492 566 38,000  Level FlightAware Transoceanic
Thu 07:48:13 PM 43.1000 -156.6833 269° West 505 581 38,000  Level Oakland Oceanic (ODAPS)
Thu 07:49:00 PM 43.0913 -156.8503 269° West 492 566 38,000  Level FlightAware Transoceanic
Thu 07:50:00 PM 43.0883 -157.0358 269° West 492 566 38,000  Level FlightAware Transoceanic
Thu 07:51:00 PM 43.0850 -157.2212 269° West 492 566 38,000  Level FlightAware Transoceanic
Thu 07:52:00 PM 43.0815 -157.4067 268° West 492 566 38,000  Level FlightAware Transoceanic
Thu 07:53:00 PM 43.0776 -157.5921 268° West 492 566 38,000  Level FlightAware Transoceanic
Thu 07:54:00 PM 43.0756 -157.8551 268° West 505 581 38,000  Level FlightAware Transoceanic
Thu 07:55:00 PM 43.0704 -158.0503 268° West 505 581 38,000  Level FlightAware Transoceanic
Thu 07:56:00 PM 43.0649 -158.2455 268° West 505 581 38,000  Level FlightAware Transoceanic
Thu 07:57:00 PM 43.0590 -158.4406 268° West 505 581 38,000  Level FlightAware Transoceanic
Thu 07:58:00 PM 43.0528 -158.6357 267° West 505 581 38,000  Level FlightAware Transoceanic
Thu 07:59:00 PM 43.0462 -158.8307 267° West 505 581 38,000  Level FlightAware Transoceanic
Thu 08:00:00 PM 43.0393 -159.0257 267° West 505 581 38,000  Level FlightAware Transoceanic
Thu 08:01:00 PM 43.0321 -159.2207 267° West 505 581 38,000  Level FlightAware Transoceanic
Thu 08:02:00 PM 43.0246 -159.4156 267° West 505 581 38,000  Level FlightAware Transoceanic
Thu 08:02:03 PM 43.0333 -159.3500 266° West 502 578 38,000  Level Oakland Oceanic (ODAPS)
Thu 08:03:00 PM 43.0167 -159.6104 267° West 505 581 38,000  Level FlightAware Transoceanic
Thu 08:04:00 PM 43.0085 -159.8052 267° West 505 581 38,000  Level FlightAware Transoceanic
Thu 08:05:00 PM 43.0000 -160.0000 252° West 505 581 38,000  Level FlightAware Transoceanic
Thu 08:05:35 PM 43.0000 -160.0000 252° West 521 600 38,000  Level Oakland Oceanic (ODAPS)
Thu 08:06:00 PM 42.9558 -160.1801 251° West 505 581 38,000  Level FlightAware Transoceanic
Thu 08:07:00 PM 42.9114 -160.3600 251° West 505 581 38,000  Level FlightAware Transoceanic
Thu 08:08:00 PM 42.8667 -160.5397 251° West 502 578 38,000  Level FlightAware Transoceanic
Thu 08:09:00 PM 42.8217 -160.7190 251° West 502 578 38,000  Level FlightAware Transoceanic
Thu 08:10:00 PM 42.7765 -160.8981 251° West 502 578 38,000  Level FlightAware Transoceanic
Thu 08:11:00 PM 42.7309 -161.0770 251° West 502 578 38,000  Level FlightAware Transoceanic
Thu 08:12:00 PM 42.6736 -161.3001 251° West 521 600 38,000  Level FlightAware Transoceanic
Thu 08:13:00 PM 42.6258 -161.4847 251° West 521 600 38,000  Level FlightAware Transoceanic
Thu 08:14:00 PM 42.5776 -161.6691 250° West 521 600 38,000  Level FlightAware Transoceanic
Thu 08:15:00 PM 42.5292 -161.8531 250° West 521 600 38,000  Level FlightAware Transoceanic
Thu 08:15:56 PM 42.5000 -161.9500 250° West 516 594 38,000  Level Oakland Oceanic (ODAPS)
Thu 08:16:00 PM 42.4805 -162.0368 250° West 521 600 38,000  Level FlightAware Transoceanic
Thu 08:17:00 PM 42.4315 -162.2203 250° West 521 600 38,000  Level FlightAware Transoceanic
Thu 08:18:00 PM 42.3822 -162.4035 250° West 521 600 38,000  Level FlightAware Transoceanic
Thu 08:19:00 PM 42.3326 -162.5864 250° West 521 600 38,000  Level FlightAware Transoceanic
Thu 08:20:00 PM 42.2827 -162.7690 250° West 521 600 38,000  Level FlightAware Transoceanic
Thu 08:21:00 PM 42.2326 -162.9513 250° West 521 600 38,000  Level FlightAware Transoceanic
Thu 08:22:00 PM 42.1997 -163.0587 250° West 516 594 38,000  Level FlightAware Transoceanic
Thu 08:23:00 PM 42.1487 -163.2424 249° West 516 594 38,000  Level FlightAware Transoceanic
Thu 08:24:00 PM 42.0973 -163.4259 249° West 516 594 38,000  Level FlightAware Transoceanic
Thu 08:25:00 PM 42.0456 -163.6090 249° West 516 594 38,000  Level FlightAware Transoceanic
Thu 08:26:00 PM 41.9937 -163.7919 249° West 516 594 38,000  Level FlightAware Transoceanic
Thu 08:27:00 PM 41.9414 -163.9745 249° West 516 594 38,000  Level FlightAware Transoceanic
Thu 08:28:00 PM 41.8889 -164.1567 249° West 516 594 38,000  Level FlightAware Transoceanic
Thu 08:29:00 PM 41.8361 -164.3387 249° West 516 594 38,000  Level FlightAware Transoceanic
Thu 08:29:51 PM 41.8167 -164.4333 248° West 504 580 38,000  Level Oakland Oceanic (ODAPS)
Thu 08:30:00 PM 41.7830 -164.5203 249° West 516 594 38,000  Level FlightAware Transoceanic
Thu 08:31:00 PM 41.7296 -164.7017 248° West 516 594 38,000  Level FlightAware Transoceanic
Thu 08:32:00 PM 41.6759 -164.8827 248° West 516 594 38,000  Level FlightAware Transoceanic
Thu 08:33:00 PM 41.6219 -165.0635 248° West 516 594 38,000  Level FlightAware Transoceanic
Thu 08:34:00 PM 41.5677 -165.2439 248° West 516 594 38,000  Level FlightAware Transoceanic
Thu 08:35:00 PM 41.5132 -165.4241 248° West 516 594 38,000  Level FlightAware Transoceanic
Thu 08:36:00 PM 41.4967 -165.5003 248° West 504 580 38,000  Level FlightAware Transoceanic
Thu 08:37:00 PM 41.4424 -165.6771 248° West 504 580 38,000  Level FlightAware Transoceanic
Thu 08:38:00 PM 41.3879 -165.8536 248° West 504 580 38,000  Level FlightAware Transoceanic
Thu 08:39:00 PM 41.3330 -166.0298 247° West 504 580 38,000  Level FlightAware Transoceanic
Thu 08:40:00 PM 41.2779 -166.2057 247° West 504 580 38,000  Level FlightAware Transoceanic
Thu 08:41:00 PM 41.2226 -166.3813 247° West 504 580 38,000  Level FlightAware Transoceanic
Thu 08:42:00 PM 41.1670 -166.5567 247° West 504 580 38,000  Level FlightAware Transoceanic
Thu 08:43:00 PM 41.1111 -166.7317 247° West 504 580 38,000  Level FlightAware Transoceanic
Thu 08:43:39 PM 41.0833 -166.8167 247° West 502 578 38,000  Level Oakland Oceanic (ODAPS)
Thu 08:44:00 PM 41.0549 -166.9064 247° West 504 580 38,000  Level FlightAware Transoceanic
Thu 08:45:00 PM 40.9985 -167.0808 247° West 504 580 38,000  Level FlightAware Transoceanic
Thu 08:46:00 PM 40.9418 -167.2549 247° West 504 580 38,000  Level FlightAware Transoceanic
Thu 08:47:00 PM 40.8849 -167.4288 247° West 504 580 38,000  Level FlightAware Transoceanic
Thu 08:48:00 PM 40.8276 -167.6023 246° West 504 580 38,000  Level FlightAware Transoceanic
Thu 08:49:00 PM 40.7702 -167.7755 246° West 504 580 38,000  Level FlightAware Transoceanic
Thu 08:50:00 PM 40.6944 -168.0014 246° West 502 578 38,000  Level FlightAware Transoceanic
Thu 08:51:00 PM 40.6379 -168.1696 246° West 502 578 38,000  Level FlightAware Transoceanic
Thu 08:52:00 PM 40.5811 -168.3374 246° West 502 578 38,000  Level FlightAware Transoceanic
Thu 08:53:00 PM 40.5240 -168.5049 246° West 502 578 38,000  Level FlightAware Transoceanic
Thu 08:54:00 PM 40.4668 -168.6722 246° West 502 578 38,000  Level FlightAware Transoceanic
Thu 08:55:00 PM 40.4093 -168.8392 246° West 502 578 38,000  Level FlightAware Transoceanic
Thu 08:56:00 PM 40.3515 -169.0059 245° Southwest 502 578 38,000  Level FlightAware Transoceanic
Thu 08:57:00 PM 40.2935 -169.1723 245° Southwest 502 578 38,000  Level FlightAware Transoceanic
Thu 08:57:32 PM 40.3000 -169.1500 245° Southwest 501 577 38,000  Level Oakland Oceanic (ODAPS)
Thu 08:58:00 PM 40.2353 -169.3384 245° Southwest 502 578 38,000  Level FlightAware Transoceanic
Thu 08:59:00 PM 40.1768 -169.5042 245° Southwest 502 578 38,000  Level FlightAware Transoceanic
Thu 09:00:00 PM 40.1181 -169.6698 245° Southwest 502 578 38,000  Level FlightAware Transoceanic
Thu 09:01:00 PM 40.0592 -169.8350 245° Southwest 502 578 38,000  Level FlightAware Transoceanic
Thu 09:02:00 PM 40.0000 -170.0000 259° West 502 578 38,000  Level FlightAware Transoceanic
Thu 09:02:38 PM 40.0000 -170.0000 259° West 487 560 38,000  Level Oakland Oceanic (ODAPS)
Thu 09:03:00 PM 39.9742 -170.1683 259° West 501 577 38,000  Level FlightAware Transoceanic
Thu 09:04:00 PM 39.9482 -170.3364 259° West 501 577 38,000  Level FlightAware Transoceanic
Thu 09:05:00 PM 39.9220 -170.5044 258° West 501 577 38,000  Level FlightAware Transoceanic
Thu 09:06:00 PM 39.8955 -170.6723 258° West 501 577 38,000  Level FlightAware Transoceanic
Thu 09:07:00 PM 39.8688 -170.8401 258° West 501 577 38,000  Level FlightAware Transoceanic
Thu 09:08:00 PM 39.8391 -171.0244 258° West 487 560 38,000  Level FlightAware Transoceanic
Thu 09:09:00 PM 39.8114 -171.1947 258° West 487 560 38,000  Level FlightAware Transoceanic
Thu 09:10:00 PM 39.7835 -171.3648 258° West 487 560 38,000  Level FlightAware Transoceanic
Thu 09:11:00 PM 39.7553 -171.5348 258° West 487 560 38,000  Level FlightAware Transoceanic
Thu 09:11:23 PM 39.7667 -171.5167 258° West 479 551 38,000  Level Oakland Oceanic (ODAPS)
Thu 09:12:00 PM 39.7269 -171.7047 258° West 487 560 38,000  Level FlightAware Transoceanic
Thu 09:13:00 PM 39.6982 -171.8744 258° West 487 560 38,000  Level FlightAware Transoceanic
Thu 09:14:00 PM 39.6692 -172.0439 257° West 487 560 38,000  Level FlightAware Transoceanic
Thu 09:15:00 PM 39.6401 -172.2133 257° West 487 560 38,000  Level FlightAware Transoceanic
Thu 09:16:00 PM 39.6106 -172.3826 257° West 487 560 38,000  Level FlightAware Transoceanic
Thu 09:17:00 PM 39.5946 -172.5164 257° West 479 551 38,000  Level FlightAware Transoceanic
Thu 09:18:00 PM 39.5651 -172.6825 257° West 479 551 38,000  Level FlightAware Transoceanic
Thu 09:19:00 PM 39.5354 -172.8485 257° West 479 551 38,000  Level FlightAware Transoceanic
Thu 09:20:00 PM 39.5054 -173.0144 257° West 479 551 38,000  Level FlightAware Transoceanic
Thu 09:21:00 PM 39.4752 -173.1801 257° West 479 551 38,000  Level FlightAware Transoceanic
Thu 09:22:00 PM 39.4447 -173.3456 257° West 479 551 38,000  Level FlightAware Transoceanic
Thu 09:23:00 PM 39.4141 -173.5110 256° West 479 551 38,000  Level FlightAware Transoceanic
Thu 09:24:00 PM 39.3831 -173.6763 256° West 479 551 38,000  Level FlightAware Transoceanic
Thu 09:25:00 PM 39.3520 -173.8414 256° West 479 551 38,000  Level FlightAware Transoceanic
Thu 09:25:19 PM 39.3500 -173.8333 256° West 483 556 38,000  Level Oakland Oceanic (ODAPS)
Thu 09:26:00 PM 39.3206 -174.0064 256° West 479 551 38,000  Level FlightAware Transoceanic
Thu 09:27:00 PM 39.2890 -174.1712 256° West 479 551 38,000  Level FlightAware Transoceanic
Thu 09:28:00 PM 39.2571 -174.3359 256° West 479 551 38,000  Level FlightAware Transoceanic
Thu 09:29:00 PM 39.2251 -174.5004 256° West 479 551 38,000  Level FlightAware Transoceanic
Thu 09:30:00 PM 39.1927 -174.6648 256° West 479 551 38,000  Level FlightAware Transoceanic
Thu 09:31:00 PM 39.1533 -174.8489 256° West 483 556 38,000  Level FlightAware Transoceanic
Thu 09:32:00 PM 39.1197 -175.0176 256° West 483 556 38,000  Level FlightAware Transoceanic
Thu 09:33:00 PM 39.0858 -175.1861 255° West 483 556 38,000  Level FlightAware Transoceanic
Thu 09:34:00 PM 39.0517 -175.3545 255° West 483 556 38,000  Level FlightAware Transoceanic
Thu 09:35:00 PM 39.0173 -175.5227 255° West 483 556 38,000  Level FlightAware Transoceanic
Thu 09:36:00 PM 38.9827 -175.6907 255° West 483 556 38,000  Level FlightAware Transoceanic
Thu 09:37:00 PM 38.9478 -175.8586 255° West 483 556 38,000  Level FlightAware Transoceanic
Thu 09:38:00 PM 38.9128 -176.0263 255° West 483 556 38,000  Level FlightAware Transoceanic
Thu 09:39:00 PM 38.8774 -176.1939 255° West 483 556 38,000  Level FlightAware Transoceanic
Thu 09:39:08 PM 38.8833 -176.1333 255° West 476 548 38,000  Level Oakland Oceanic (ODAPS)
Thu 09:40:00 PM 38.8419 -176.3613 255° West 483 556 38,000  Level FlightAware Transoceanic
Thu 09:41:00 PM 38.8060 -176.5285 255° West 483 556 38,000  Level FlightAware Transoceanic
Thu 09:42:00 PM 38.7700 -176.6955 254° West 483 556 38,000  Level FlightAware Transoceanic
Thu 09:43:00 PM 38.7337 -176.8624 254° West 483 556 38,000  Level FlightAware Transoceanic
Thu 09:44:00 PM 38.6972 -177.0291 254° West 483 556 38,000  Level FlightAware Transoceanic
Thu 09:45:00 PM 38.6745 -177.1088 254° West 476 548 38,000  Level FlightAware Transoceanic
Thu 09:46:00 PM 38.6389 -177.2708 254° West 476 548 38,000  Level FlightAware Transoceanic
Thu 09:47:00 PM 38.6031 -177.4327 254° West 476 548 38,000  Level FlightAware Transoceanic
Thu 09:48:00 PM 38.5670 -177.5944 254° West 476 548 38,000  Level FlightAware Transoceanic
Thu 09:49:00 PM 38.5308 -177.7559 254° West 476 548 38,000  Level FlightAware Transoceanic
Thu 09:50:00 PM 38.4943 -177.9173 254° West 476 548 38,000  Level FlightAware Transoceanic
Thu 09:51:00 PM 38.4576 -178.0785 254° West 476 548 38,000  Level FlightAware Transoceanic
Thu 09:52:00 PM 38.4206 -178.2395 254° West 476 548 38,000  Level FlightAware Transoceanic
Thu 09:53:00 PM 38.3835 -178.4004 254° West 476 548 38,000  Level FlightAware Transoceanic
Thu 09:53:12 PM 38.3833 -178.3833 254° West 470 541 38,000  Level Oakland Oceanic (ODAPS)
Thu 09:54:00 PM 38.3461 -178.5611 253° West 476 548 38,000  Level FlightAware Transoceanic
Thu 09:55:00 PM 38.3085 -178.7217 253° West 476 548 38,000  Level FlightAware Transoceanic
Thu 09:56:00 PM 38.2707 -178.8821 253° West 476 548 38,000  Level FlightAware Transoceanic
Thu 09:57:00 PM 38.2327 -179.0423 253° West 476 548 38,000  Level FlightAware Transoceanic
Thu 09:58:00 PM 38.1945 -179.2023 253° West 476 548 38,000  Level FlightAware Transoceanic
Thu 09:59:00 PM 38.1560 -179.3554 253° West 470 541 38,000  Level FlightAware Transoceanic
Thu 10:00:00 PM 38.1173 -179.5168 253° West 470 541 38,000  Level FlightAware Transoceanic
Thu 10:01:00 PM 38.0784 -179.6780 253° West 470 541 38,000  Level FlightAware Transoceanic
Thu 10:02:00 PM 38.0393 -179.8391 253° West 470 541 38,000  Level FlightAware Transoceanic
Thu 10:03:00 PM 38.0000 -180.0000 259° West 470 541 38,000  Level FlightAware Transoceanic
Thu 10:03:15 PM 38.0000 180.0000 259° West 463 533 38,000  Level Oakland Oceanic (ODAPS)
Thu 10:04:00 PM 37.9753 179.8399 259° West 470 541 38,000  Level FlightAware Transoceanic
Thu 10:05:00 PM 37.9505 179.6799 259° West 470 541 38,000  Level FlightAware Transoceanic
Thu 10:06:00 PM 37.9254 179.5200 259° West 470 541 38,000  Level FlightAware Transoceanic
Thu 10:06:56 PM 37.9167 179.4167 259° West 460 529 38,000  Level Oakland Oceanic (ODAPS)
Thu 10:07:00 PM 37.9001 179.3603 259° West 470 541 38,000  Level FlightAware Transoceanic
Thu 10:08:00 PM 37.8745 179.2006 258° West 470 541 38,000  Level FlightAware Transoceanic
Thu 10:09:00 PM 37.8488 179.0410 258° West 463 533 38,000  Level FlightAware Transoceanic
Thu 10:10:00 PM 37.8228 178.8816 258° West 463 533 38,000  Level FlightAware Transoceanic
Thu 10:11:00 PM 37.7966 178.7223 258° West 463 533 38,000  Level FlightAware Transoceanic
Thu 10:12:00 PM 37.7703 178.5631 258° West 463 533 38,000  Level FlightAware Transoceanic
Thu 10:13:00 PM 37.7617 178.4702 258° West 460 529 38,000  Level FlightAware Transoceanic
Thu 10:14:00 PM 37.7351 178.3128 258° West 460 529 38,000  Level FlightAware Transoceanic
Thu 10:15:00 PM 37.7083 178.1556 258° West 460 529 38,000  Level FlightAware Transoceanic
Thu 10:16:00 PM 37.6814 177.9984 258° West 460 529 38,000  Level FlightAware Transoceanic
Thu 10:17:00 PM 37.6542 177.8414 258° West 460 529 38,000  Level FlightAware Transoceanic
Thu 10:18:00 PM 37.6268 177.6845 258° West 460 529 38,000  Level FlightAware Transoceanic
Thu 10:19:00 PM 37.5992 177.5277 257° West 460 529 38,000  Level FlightAware Transoceanic
Thu 10:20:00 PM 37.5713 177.3711 257° West 460 529 38,000 583 Level FlightAware Transoceanic
Thu 10:20:43 PM 37.5500 177.2667 257° West 454 522 39,000  Climbing Oakland Oceanic (ODAPS)
Thu 10:21:00 PM 37.5433 177.2145 257° West 460 529 38,000 -779 Descending FlightAware Transoceanic
Thu 10:22:00 PM 37.5151 177.0581 257° West 460 529 38,000  Level FlightAware Transoceanic
Thu 10:23:00 PM 37.4866 176.9018 257° West 460 529 38,000  Level FlightAware Transoceanic
Thu 10:24:00 PM 37.4580 176.7456 257° West 460 529 38,000  Level FlightAware Transoceanic
Thu 10:25:00 PM 37.4292 176.5895 257° West 460 529 38,000  Level FlightAware Transoceanic
Thu 10:26:00 PM 37.4001 176.4335 257° West 460 529 38,000 500 Level FlightAware Transoceanic
Thu 10:27:00 PM 37.3770 176.3230 257° West 454 522 39,000 500 Climbing FlightAware Transoceanic
Thu 10:28:00 PM 37.3475 176.1662 257° West 454 522 39,000  Level FlightAware Transoceanic
Thu 10:29:00 PM 37.3177 176.0095 257° West 454 522 39,000  Level FlightAware Transoceanic
Thu 10:30:00 PM 37.2878 175.8529 256° West 454 522 39,000  Level FlightAware Transoceanic
Thu 10:31:00 PM 37.2576 175.6964 256° West 454 522 39,000  Level FlightAware Transoceanic
Thu 10:32:00 PM 37.2272 175.5400 256° West 454 522 39,000  Level FlightAware Transoceanic
Thu 10:33:00 PM 37.1966 175.3838 256° West 454 522 39,000  Level FlightAware Transoceanic
Thu 10:34:00 PM 37.1658 175.2277 256° West 454 522 39,000  Level FlightAware Transoceanic
Thu 10:34:35 PM 37.1500 175.1500 256° West 452 520 39,000  Level Oakland Oceanic (ODAPS)
Thu 10:35:00 PM 37.1348 175.0718 256° West 454 522 39,000  Level FlightAware Transoceanic
Thu 10:36:00 PM 37.1036 174.9159 256° West 454 522 39,000  Level FlightAware Transoceanic
Thu 10:37:00 PM 37.0723 174.7602 256° West 454 522 39,000  Level FlightAware Transoceanic
Thu 10:38:00 PM 37.0406 174.6046 256° West 454 522 39,000  Level FlightAware Transoceanic
Thu 10:39:00 PM 37.0088 174.4492 256° West 454 522 39,000  Level FlightAware Transoceanic
Thu 10:40:00 PM 36.9687 174.2564 255° West 452 520 39,000  Level FlightAware Transoceanic
Thu 10:41:00 PM 36.9379 174.1079 255° West 452 520 39,000  Level FlightAware Transoceanic
Thu 10:42:00 PM 36.9068 173.9595 255° West 452 520 39,000  Level FlightAware Transoceanic
Thu 10:43:00 PM 36.8756 173.8112 255° West 452 520 39,000  Level FlightAware Transoceanic
Thu 10:44:00 PM 36.8442 173.6631 255° West 452 520 39,000  Level FlightAware Transoceanic
Thu 10:45:00 PM 36.8126 173.5150 255° West 452 520 39,000  Level FlightAware Transoceanic
Thu 10:46:00 PM 36.7808 173.3671 255° West 452 520 39,000  Level FlightAware Transoceanic
Thu 10:47:00 PM 36.7488 173.2193 255° West 452 520 39,000  Level FlightAware Transoceanic
Thu 10:48:00 PM 36.7167 173.0717 255° West 452 520 39,000  Level FlightAware Transoceanic
Thu 10:49:00 PM 36.6843 172.9241 255° West 452 520 39,000  Level FlightAware Transoceanic
Thu 10:50:00 PM 36.6518 172.7767 255° West 452 520 39,000  Level FlightAware Transoceanic
Thu 10:50:40 PM 36.7167 173.0833 255° West 447 514 39,000  Level Oakland Oceanic (ODAPS)
Thu 10:51:00 PM 36.6191 172.6294 254° West 452 520 39,000  Level FlightAware Transoceanic
Thu 10:52:00 PM 36.5862 172.4823 254° West 452 520 39,000  Level FlightAware Transoceanic
Thu 10:53:00 PM 36.5532 172.3352 254° West 452 520 39,000  Level FlightAware Transoceanic
Thu 10:54:00 PM 36.5200 172.1883 254° West 452 520 39,000  Level FlightAware Transoceanic
Thu 10:55:00 PM 36.4865 172.0415 254° West 452 520 39,000  Level FlightAware Transoceanic
Thu 10:56:00 PM 36.4529 171.8949 254° West 452 520 39,000  Level FlightAware Transoceanic
Thu 10:57:00 PM 36.4192 171.7550 254° West 447 514 39,000  Level FlightAware Transoceanic
Thu 10:58:00 PM 36.3853 171.6080 254° West 447 514 39,000  Level FlightAware Transoceanic
Thu 10:59:00 PM 36.3512 171.4612 254° West 447 514 39,000  Level FlightAware Transoceanic
Thu 11:00:00 PM 36.3168 171.3145 254° West 447 514 39,000  Level FlightAware Transoceanic
Thu 11:01:00 PM 36.2823 171.1679 254° West 447 514 39,000  Level FlightAware Transoceanic
Thu 11:02:00 PM 36.2477 171.0214 254° West 447 514 39,000  Level FlightAware Transoceanic
Thu 11:03:00 PM 36.2128 170.8751 254° West 447 514 39,000  Level FlightAware Transoceanic
Thu 11:04:00 PM 36.1778 170.7289 253° West 447 514 39,000  Level FlightAware Transoceanic
Thu 11:05:00 PM 36.1426 170.5829 253° West 447 514 39,000  Level FlightAware Transoceanic
Thu 11:05:21 PM 36.2500 171.0000 253° West 452 520 39,000  Level Oakland Oceanic (ODAPS)
Thu 11:06:00 PM 36.1072 170.4370 253° West 447 514 39,000  Level FlightAware Transoceanic
Thu 11:07:00 PM 36.0717 170.2912 253° West 447 514 39,000  Level FlightAware Transoceanic
Thu 11:08:00 PM 36.0359 170.1455 253° West 447 514 39,000  Level FlightAware Transoceanic
Thu 11:09:00 PM 36.0000 170.0000 266° West 447 514 39,000  Level FlightAware Transoceanic
Thu 11:10:00 PM 35.9908 169.8421 266° West 447 514 39,000  Level FlightAware Transoceanic
Thu 11:11:00 PM 35.9808 169.6740 266° West 452 520 39,000  Level FlightAware Transoceanic
Thu 11:12:00 PM 35.9708 169.5111 266° West 452 520 39,000  Level FlightAware Transoceanic
Thu 11:13:00 PM 35.9606 169.3482 266° West 452 520 39,000  Level FlightAware Transoceanic
Thu 11:14:00 PM 35.9502 169.1853 265° West 452 520 39,000  Level FlightAware Transoceanic
Thu 11:15:00 PM 35.9396 169.0225 265° West 452 520 39,000  Level FlightAware Transoceanic
Thu 11:16:00 PM 35.9288 168.8597 265° West 452 520 39,000  Level FlightAware Transoceanic
Thu 11:17:00 PM 35.9178 168.6970 265° West 452 520 39,000  Level FlightAware Transoceanic
Thu 11:18:00 PM 35.9065 168.5343 265° West 452 520 39,000  Level FlightAware Transoceanic
Thu 11:19:00 PM 35.8950 168.3717 265° West 452 520 39,000  Level FlightAware Transoceanic
Thu 11:19:51 PM 35.9333 168.8667 265° West 459 528 39,000  Level Oakland Oceanic (ODAPS)
Thu 11:20:00 PM 35.8833 168.2091 265° West 452 520 39,000  Level FlightAware Transoceanic
Thu 11:21:00 PM 35.8713 168.0466 265° West 452 520 39,000  Level FlightAware Transoceanic
Thu 11:22:00 PM 35.8592 167.8841 265° West 452 520 39,000  Level FlightAware Transoceanic
Thu 11:23:00 PM 35.8468 167.7217 265° West 452 520 39,000  Level FlightAware Transoceanic
Thu 11:24:00 PM 35.8343 167.5593 264° West 452 520 39,000  Level FlightAware Transoceanic
Thu 11:25:00 PM 35.8214 167.3970 264° West 452 520 39,000  Level FlightAware Transoceanic
Thu 11:26:00 PM 35.8168 167.2973 264° West 459 528 39,000  Level FlightAware Transoceanic
Thu 11:27:00 PM 35.8041 167.1406 264° West 459 528 39,000  Level FlightAware Transoceanic
Thu 11:28:00 PM 35.7911 166.9839 264° West 459 528 39,000  Level FlightAware Transoceanic
Thu 11:29:00 PM 35.7779 166.8274 264° West 459 528 39,000  Level FlightAware Transoceanic
Thu 11:30:00 PM 35.7645 166.6708 264° West 459 528 39,000  Level FlightAware Transoceanic
Thu 11:30:10 PM 35.7667 166.6667 264° West 455 524 39,000  Level Oakland Oceanic (ODAPS)
Thu 11:31:00 PM 35.7509 166.5144 264° West 459 528 39,000  Level FlightAware Transoceanic
Thu 11:32:00 PM 35.7372 166.3579 264° West 459 528 39,000  Level FlightAware Transoceanic
Thu 11:33:00 PM 35.7232 166.2016 264° West 459 528 39,000  Level FlightAware Transoceanic
Thu 11:34:00 PM 35.7090 166.0453 264° West 459 528 39,000  Level FlightAware Transoceanic
Thu 11:35:00 PM 35.6946 165.8890 263° West 459 528 39,000  Level FlightAware Transoceanic
Thu 11:36:00 PM 35.6818 165.7292 263° West 455 524 39,000  Level FlightAware Transoceanic
Thu 11:37:00 PM 35.6670 165.5732 263° West 455 524 39,000  Level FlightAware Transoceanic
Thu 11:38:00 PM 35.6519 165.4172 263° West 455 524 39,000  Level FlightAware Transoceanic
Thu 11:39:00 PM 35.6367 165.2613 263° West 455 524 39,000  Level FlightAware Transoceanic
Thu 11:40:00 PM 35.6212 165.1054 263° West 455 524 39,000  Level FlightAware Transoceanic
Thu 11:41:00 PM 35.6056 164.9496 263° West 455 524 39,000  Level FlightAware Transoceanic
Thu 11:42:00 PM 35.5897 164.7939 263° West 455 524 39,000  Level FlightAware Transoceanic
Thu 11:43:00 PM 35.5737 164.6382 263° West 455 524 39,000  Level FlightAware Transoceanic
Thu 11:44:00 PM 35.5574 164.4825 263° West 455 524 39,000  Level FlightAware Transoceanic
Thu 11:45:00 PM 35.5410 164.3270 263° West 455 524 39,000  Level FlightAware Transoceanic
Thu 11:46:00 PM 35.5243 164.1715 262° West 455 524 39,000  Level FlightAware Transoceanic
Thu 11:47:00 PM 35.5074 164.0161 262° West 455 524 39,000  Level FlightAware Transoceanic
Thu 11:48:00 PM 35.4904 163.8607 262° West 455 524 39,000  Level FlightAware Transoceanic
Thu 11:49:00 PM 35.4731 163.7054 262° West 455 524 39,000  Level FlightAware Transoceanic
Thu 11:50:00 PM 35.4557 163.5502 262° West 455 524 39,000  Level FlightAware Transoceanic
Thu 11:51:00 PM 35.4380 163.3950 262° West 455 524 39,000  Level FlightAware Transoceanic
Thu 11:52:00 PM 35.4202 163.2399 262° West 455 524 39,000  Level FlightAware Transoceanic
Thu 11:53:00 PM 35.4021 163.0849 262° West 455 524 39,000  Level FlightAware Transoceanic
Thu 11:54:00 PM 35.3839 162.9300 262° West 455 524 39,000  Level FlightAware Transoceanic
Thu 11:55:00 PM 35.3655 162.7751 262° West 455 524 39,000  Level FlightAware Transoceanic
Thu 11:56:00 PM 35.3468 162.6203 262° West 455 524 39,000  Level FlightAware Transoceanic
Thu 11:57:00 PM 35.3280 162.4655 261° West 455 524 39,000  Level FlightAware Transoceanic
Thu 11:58:00 PM 35.3090 162.3109 261° West 455 524 39,000  Level FlightAware Transoceanic
Thu 11:59:00 PM 35.2897 162.1563 261° West 455 524 39,000  Level FlightAware Transoceanic
Fri 12:00:00 AM 35.2703 162.0018 261° West 455 524 39,000  Level FlightAware Transoceanic
Fri 12:01:00 AM 35.2507 161.8473 261° West 455 524 39,000  Level FlightAware Transoceanic
Fri 12:02:00 AM 35.2309 161.6929 261° West 455 524 39,000  Level FlightAware Transoceanic
Fri 12:03:00 AM 35.2109 161.5386 261° West 455 524 39,000  Level FlightAware Transoceanic
Fri 12:04:00 AM 35.1907 161.3844 261° West 455 524 39,000  Level FlightAware Transoceanic
Fri 12:05:00 AM 35.1702 161.2303 261° West 455 524 39,000  Level FlightAware Transoceanic
Fri 12:06:00 AM 35.1496 161.0762 261° West 455 524 39,000  Level FlightAware Transoceanic
Fri 12:07:00 AM 35.1288 160.9222 261° West 455 524 39,000  Level FlightAware Transoceanic
Fri 12:08:00 AM 35.1079 160.7683 260° West 455 524 39,000  Level FlightAware Transoceanic
Fri 12:09:00 AM 35.0867 160.6145 260° West 455 524 39,000  Level FlightAware Transoceanic
Fri 12:10:00 AM 35.0653 160.4608 260° West 455 524 39,000  Level FlightAware Transoceanic
Fri 12:11:00 AM 35.0437 160.3071 260° West 455 524 39,000  Level FlightAware Transoceanic
Fri 12:12:00 AM 35.0220 160.1535 260° West 455 524 39,000  Level FlightAware Transoceanic
Fri 12:13:00 AM 35.0000 160.0000 273° West 455 524 39,000  Level FlightAware Transoceanic
Fri 12:14:00 AM 35.0062 159.8464 273° West 455 524 39,000  Level FlightAware Transoceanic
Fri 12:15:00 AM 35.0122 159.6928 273° West 455 524 39,000  Level FlightAware Transoceanic
Fri 12:16:00 AM 35.0181 159.5391 273° West 455 524 39,000  Level FlightAware Transoceanic
Fri 12:17:00 AM 35.0237 159.3855 273° West 455 524 39,000  Level FlightAware Transoceanic
Fri 12:18:00 AM 35.0291 159.2318 272° West 455 524 39,000  Level FlightAware Transoceanic
Fri 12:19:00 AM 35.0344 159.0781 272° West 455 524 39,000  Level FlightAware Transoceanic
Fri 12:20:00 AM 35.0395 158.9243 272° West 455 524 39,000  Level FlightAware Transoceanic
Fri 12:21:00 AM 35.0443 158.7706 272° West 455 524 39,000  Level FlightAware Transoceanic
Fri 12:22:00 AM 35.0490 158.6168 272° West 455 524 39,000  Level FlightAware Transoceanic
Fri 12:23:00 AM 35.0535 158.4630 272° West 455 524 39,000  Level FlightAware Transoceanic
Fri 12:24:00 AM 35.0577 158.3092 272° West 455 524 39,000  Level FlightAware Transoceanic
Fri 12:25:00 AM 35.0618 158.1554 272° West 455 524 39,000  Level FlightAware Transoceanic
Fri 12:26:00 AM 35.0657 158.0016 272° West 455 524 39,000  Level FlightAware Transoceanic
Fri 12:27:00 AM 35.0694 157.8478 272° West 455 524 39,000  Level FlightAware Transoceanic
Fri 12:28:00 AM 35.0729 157.6939 272° West 455 524 39,000  Level FlightAware Transoceanic
Fri 12:29:00 AM 35.0762 157.5400 271° West 455 524 39,000  Level FlightAware Transoceanic
Fri 12:30:00 AM 35.0793 157.3862 271° West 455 524 39,000  Level FlightAware Transoceanic
Fri 12:31:00 AM 35.0822 157.2323 271° West 455 524 39,000  Level FlightAware Transoceanic
Fri 12:32:00 AM 35.0850 157.0784 271° West 455 524 39,000  Level FlightAware Transoceanic
Fri 12:33:00 AM 35.0875 156.9245 271° West 455 524 39,000  Level FlightAware Transoceanic
Fri 12:34:00 AM 35.0898 156.7705 271° West 455 524 39,000  Level FlightAware Transoceanic
Fri 12:35:00 AM 35.0920 156.6166 271° West 455 524 39,000  Level FlightAware Transoceanic
Fri 12:36:00 AM 35.0939 156.4627 271° West 455 524 39,000  Level FlightAware Transoceanic
Fri 12:37:00 AM 35.0957 156.3087 271° West 455 524 39,000  Level FlightAware Transoceanic
Fri 12:38:00 AM 35.0972 156.1548 271° West 455 524 39,000  Level FlightAware Transoceanic
Fri 12:39:00 AM 35.0986 156.0008 271° West 455 524 39,000  Level FlightAware Transoceanic
Fri 12:40:00 AM 35.0998 155.8468 270° West 455 524 39,000  Level FlightAware Transoceanic
Fri 12:41:00 AM 35.1007 155.6929 270° West 455 524 39,000  Level FlightAware Transoceanic
Fri 12:42:00 AM 35.1015 155.5389 270° West 455 524 39,000  Level FlightAware Transoceanic
Fri 12:43:00 AM 35.1021 155.3849 270° West 455 524 39,000  Level FlightAware Transoceanic
Fri 12:44:00 AM 35.1025 155.2310 270° West 455 524 39,000  Level FlightAware Transoceanic
Fri 12:45:00 AM 35.1027 155.0770 270° West 455 524 39,000  Level FlightAware Transoceanic
Fri 12:46:00 AM 35.1027 154.9230 270° West 455 524 39,000  Level FlightAware Transoceanic
Fri 12:47:00 AM 35.1025 154.7690 270° West 455 524 39,000  Level FlightAware Transoceanic
Fri 12:48:00 AM 35.1021 154.6151 270° West 455 524 39,000  Level FlightAware Transoceanic
Fri 12:49:00 AM 35.1015 154.4611 270° West 455 524 39,000  Level FlightAware Transoceanic
Fri 12:50:00 AM 35.1007 154.3071 270° West 455 524 39,000  Level FlightAware Transoceanic
Fri 12:51:00 AM 35.0998 154.1532 270° West 455 524 39,000  Level FlightAware Transoceanic
Fri 12:52:00 AM 35.0986 153.9992 269° West 455 524 39,000  Level FlightAware Transoceanic
Fri 12:53:00 AM 35.0972 153.8452 269° West 455 524 39,000  Level FlightAware Transoceanic
Fri 12:54:00 AM 35.0957 153.6913 269° West 455 524 39,000  Level FlightAware Transoceanic
Fri 12:55:00 AM 35.0939 153.5373 269° West 455 524 39,000  Level FlightAware Transoceanic
Fri 12:56:00 AM 35.0920 153.3834 269° West 455 524 39,000  Level FlightAware Transoceanic
Fri 12:57:00 AM 35.0898 153.2295 269° West 455 524 39,000  Level FlightAware Transoceanic
Fri 12:58:00 AM 35.0875 153.0755 269° West 455 524 39,000  Level FlightAware Transoceanic
Fri 12:59:00 AM 35.0850 152.9216 269° West 455 524 39,000  Level FlightAware Transoceanic
Fri 01:00:00 AM 35.0822 152.7677 269° West 455 524 39,000  Level FlightAware Transoceanic
Fri 01:01:00 AM 35.0793 152.6138 269° West 455 524 39,000  Level FlightAware Transoceanic
Fri 01:02:00 AM 35.0762 152.4600 269° West 455 524 39,000  Level FlightAware Transoceanic
Fri 01:03:00 AM 35.0729 152.3061 268° West 455 524 39,000  Level FlightAware Transoceanic
Fri 01:04:00 AM 35.0694 152.1522 268° West 455 524 39,000  Level FlightAware Transoceanic
Fri 01:05:00 AM 35.0657 151.9984 268° West 455 524 39,000  Level FlightAware Transoceanic
Fri 01:06:00 AM 35.0618 151.8446 268° West 455 524 39,000  Level FlightAware Transoceanic
Fri 01:07:00 AM 35.0577 151.6908 268° West 455 524 39,000  Level FlightAware Transoceanic
Fri 01:08:00 AM 35.0535 151.5370 268° West 455 524 39,000  Level FlightAware Transoceanic
Fri 01:09:00 AM 35.0490 151.3832 268° West 455 524 39,000  Level FlightAware Transoceanic
Fri 01:10:00 AM 35.0443 151.2294 268° West 455 524 39,000  Level FlightAware Transoceanic
Fri 01:11:00 AM 35.0395 151.0757 268° West 455 524 39,000  Level FlightAware Transoceanic
Fri 01:12:00 AM 35.0344 150.9219 268° West 455 524 39,000  Level FlightAware Transoceanic
Fri 01:13:00 AM 35.0291 150.7682 268° West 455 524 39,000  Level FlightAware Transoceanic
Fri 01:14:00 AM 35.0237 150.6145 267° West 455 524 39,000  Level FlightAware Transoceanic
Fri 01:15:00 AM 35.0181 150.4609 267° West 455 524 39,000  Level FlightAware Transoceanic
Fri 01:16:00 AM 35.0122 150.3072 267° West 455 524 39,000  Level FlightAware Transoceanic
Fri 01:17:00 AM 35.0062 150.1536 267° West 455 524 39,000 -149 Level FlightAware Transoceanic
Fri 01:18:00 AM 34.9998 149.9962 267° West  Level FlightAware Approximate
Fri 01:19:00 AM 35.0007 149.9924 277° West  Level FlightAware Approximate
Fri 01:20:00 AM 35.0156 149.8359 277° West  Level FlightAware Approximate
Fri 01:21:00 AM 35.0303 149.6793 277° West  Level FlightAware Approximate
Fri 01:22:00 AM 35.0447 149.5226 276° West  Level FlightAware Approximate
Fri 01:23:00 AM 35.0590 149.3659 276° West  Level FlightAware Approximate
Fri 01:24:00 AM 35.0730 149.2091 276° West  Level FlightAware Approximate
Fri 01:25:00 AM 35.0869 149.0523 276° West  Level FlightAware Approximate
Fri 01:26:00 AM 35.1006 148.8954 276° West  Level FlightAware Approximate
Fri 01:27:00 AM 35.1140 148.7384 276° West  Level FlightAware Approximate
Fri 01:28:00 AM 35.1273 148.5815 276° West  Level FlightAware Approximate
Fri 01:29:00 AM 35.1403 148.4244 276° West  Level FlightAware Approximate
Fri 01:30:00 AM 35.1532 148.2673 276° West  Level FlightAware Approximate
Fri 01:31:00 AM 35.1658 148.1102 276° West  Level FlightAware Approximate
Fri 01:32:00 AM 35.1783 147.9530 276° West  Level FlightAware Approximate
Fri 01:33:00 AM 35.1905 147.7958 275° West  Level FlightAware Approximate
Fri 01:34:00 AM 35.2025 147.6385 275° West  Level FlightAware Approximate
Fri 01:35:00 AM 35.2144 147.4812 275° West  Level FlightAware Approximate
Fri 01:36:00 AM 35.2260 147.3238 275° West  Level FlightAware Approximate
Fri 01:37:00 AM 35.2374 147.1666 275° West  Level FlightAware Approximate
Fri 01:38:00 AM 35.2486 147.0094 275° West  Level FlightAware Approximate
Fri 01:39:00 AM 35.2596 146.8521 275° West  Level FlightAware Approximate
Fri 01:40:00 AM 35.2704 146.6947 275° West  Level FlightAware Approximate
Fri 01:41:00 AM 35.2810 146.5374 275° West  Level FlightAware Approximate
Fri 01:42:00 AM 35.2914 146.3800 275° West  Level FlightAware Approximate
Fri 01:43:00 AM 35.3016 146.2225 275° West  Level FlightAware Approximate
Fri 01:44:00 AM 35.3116 146.0650 274° West  Level FlightAware Approximate
Fri 01:45:00 AM 35.3148 145.9073 268° West  Level FlightAware Approximate
Fri 01:46:00 AM 35.3109 145.7495 268° West  Level FlightAware Approximate
Fri 01:47:00 AM 35.3068 145.5916 268° West  Level FlightAware Approximate
Fri 01:48:00 AM 35.3024 145.4337 268° West  Level FlightAware Approximate
Fri 01:49:00 AM 35.2973 145.2759 267° West  Level FlightAware Approximate
Fri 01:50:00 AM 35.2913 145.1181 267° West  Level FlightAware Approximate
Fri 01:51:00 AM 35.2851 144.9604 267° West  Level FlightAware Approximate
Fri 01:52:00 AM 35.2787 144.8027 267° West  Level FlightAware Approximate
Fri 01:53:00 AM 35.2721 144.6450 267° West  Level FlightAware Approximate
Fri 01:54:00 AM 35.2654 144.4875 267° West  Level FlightAware Approximate
Fri 01:55:00 AM 35.2584 144.3301 267° West  Level FlightAware Approximate
Fri 01:56:00 AM 35.2512 144.1727 267° West  Level FlightAware Approximate
Fri 01:57:00 AM 35.2438 144.0154 267° West  Level FlightAware Approximate
Fri 01:58:00 AM 35.2362 143.8580 267° West  Level FlightAware Approximate
Fri 01:59:00 AM 35.2603 143.7062 289° West  Level FlightAware Approximate
Fri 02:00:00 AM 35.3028 143.5573 289° West  Level FlightAware Approximate
Fri 02:01:00 AM 35.3465 143.4089 291° West  Level FlightAware Approximate
Fri 02:02:00 AM 35.3934 143.2619 291° West  Level FlightAware Approximate
Fri 02:03:00 AM 35.4401 143.1147 291° West  Level FlightAware Approximate
Fri 02:04:00 AM 35.4885 142.9683 292° West  Level FlightAware Approximate
Fri 02:05:00 AM 35.5372 142.8219 292° West  Level FlightAware Approximate
Fri 02:06:00 AM 35.5859 142.6755 292° West  Level FlightAware Approximate
Fri 02:06:55 AM 35.5630 142.7440 292° West 423 487 31,400  Level FlightAware ADS-B
Fri 02:07:00 AM 35.6286 142.5262 288° West  Level FlightAware Approximate
Fri 02:07:53 AM 35.5970 142.6260 290° West 405 466 30,000  Level FlightAware ADS-B
Fri 02:08:00 AM 35.6692 142.3759 292° West  Level FlightAware Approximate
Fri 02:08:34 AM 35.6190 142.5350 287° West 374 430 26,400  Level FlightAware ADS-B
Fri 02:09:19 AM 35.6310 142.4470 280° West 374 430 26,000 -2,556 Descending FlightAware ADS-B
Fri 02:09:28 AM 35.6170 142.4270 229° Southwest 357 411 24,100 -2,375 Descending FlightAware ADS-B
Fri 02:10:07 AM 35.6130 142.3600 266° West 357 411 24,100 -2,203 Level FlightAware ADS-B
Fri 02:10:47 AM 35.6090 142.2670 267° West 344 396 21,200 -2,231 Descending FlightAware ADS-B
Fri 02:11:25 AM 35.6060 142.2040 267° West 344 396 21,200 -1,841 Level FlightAware ADS-B
Fri 02:12:15 AM 35.6010 142.1020 267° West 335 386 18,500 -2,207 Descending FlightAware ADS-B
Fri 02:12:52 AM 35.5970 142.0300 266° West 336 387 18,000 -448 Descending FlightAware ADS-B
Fri 02:13:22 AM 35.5940 141.9810 266° West 336 387 18,000  Level FlightAware ADS-B
Fri 02:13:57 AM 35.5910 141.9250 266° West 336 387 18,000  Level FlightAware ADS-B
Fri 02:14:32 AM 35.5880 141.8680 266° West 336 387 18,000  Level FlightAware ADS-B
Fri 02:15:08 AM 35.5840 141.8100 265° West 336 387 18,000  Level FlightAware ADS-B
Fri 02:15:51 AM 35.5810 141.7400 267° West 336 387 18,000 -2,708 Level FlightAware ADS-B
Fri 02:17:01 AM 35.6820 141.5760 307° West 335 386 12,900 -3,054 Descending FlightAware ADS-B
Fri 02:17:43 AM 35.7020 141.4910 286° West 337 388 12,300 -837 Descending FlightAware ADS-B
Fri 02:18:27 AM 35.7210 141.4100 286° West 324 373 11,700 -714 Descending FlightAware ADS-B
Fri 02:19:07 AM 35.7370 141.3420 286° West 320 368 11,300 -711 Descending FlightAware ADS-B
Fri 02:19:43 AM 35.7500 141.2860 286° West 318 366 10,800 -857 Descending FlightAware ADS-B
Fri 02:20:17 AM 35.7670 141.2160 287° West 316 364 10,300 -806 Descending FlightAware ADS-B
Fri 02:20:50 AM 35.7800 141.1590 286° West 315 362 9,900 -706 Descending FlightAware ADS-B
Fri 02:21:08 AM 35.7870 141.1300 287° West 314 361 9,700 -316 Descending FlightAware ADS-B
Fri 02:21:28 AM 35.7940 141.1000 286° West 297 342 9,700  Level FlightAware ADS-B
Fri 02:21:47 AM 35.8020 141.0670 287° West 279 321 9,700 -154 Level FlightAware ADS-B
Fri 02:22:07 AM 35.8080 141.0400 285° West 271 312 9,600 -857 Descending FlightAware ADS-B
Fri 02:22:22 AM 35.8140 141.0150 286° West 267 307 9,200 -900 Descending FlightAware ADS-B
Fri 02:22:47 AM 35.8230 140.9780 287° West 269 310 9,000 -522 Descending FlightAware ADS-B
Fri 02:23:08 AM 35.8300 140.9460 285° West 269 310 8,800 -585 Descending FlightAware ADS-B
Fri 02:23:28 AM 35.8370 140.9180 287° West 269 310 8,600 -480 Descending FlightAware ADS-B
Fri 02:23:33 AM 35.8380 140.9070 276° West 271 312 8,600 -176 Level FlightAware ADS-B
Fri 02:24:02 AM 35.8310 140.8700 257° West 276 318 8,500 -514 Descending FlightAware ADS-B
Fri 02:24:08 AM 35.8240 140.8590 232° Southwest 277 319 8,300 -1,200 Descending FlightAware ADS-B
Fri 02:24:22 AM 35.8090 140.8470 213° Southwest 289 333 8,100 -1,250 Descending FlightAware ADS-B
Fri 02:24:32 AM 35.7940 140.8400 201° Southwest 292 336 7,800 -1,400 Descending FlightAware ADS-B
Fri 02:24:52 AM 35.7690 140.8290 200° South 290 334 7,400 -1,174 Descending FlightAware ADS-B
Fri 02:25:18 AM 35.7380 140.8160 199° South 276 318 6,900 -1,304 Descending FlightAware ADS-B
Fri 02:25:38 AM 35.7140 140.8060 199° South 274 315 6,400 -1,600 Descending FlightAware ADS-B
Fri 02:26:03 AM 35.6820 140.7920 200° South 273 314 5,700 -1,579 Descending FlightAware ADS-B
Fri 02:26:35 AM 35.6440 140.7760 199° South 273 314 4,900 -1,472 Descending FlightAware ADS-B
Fri 02:26:56 AM 35.6210 140.7660 199° South 276 318 4,400 -1,429 Descending FlightAware ADS-B
Fri 02:27:17 AM 35.5960 140.7550 200° South 277 319 3,900 -1,171 Descending FlightAware ADS-B
Fri 02:27:37 AM 35.5700 140.7440 199° South 275 316 3,600 -514 Descending FlightAware ADS-B
Fri 02:27:52 AM 35.5520 140.7360 200° South 258 297 3,600  Level FlightAware ADS-B
Fri 02:28:12 AM 35.5310 140.7270 199° South 241 277 3,600  Level FlightAware ADS-B
Fri 02:28:37 AM 35.5050 140.7160 199° South 242 278 3,600  Level FlightAware ADS-B
Fri 02:28:47 AM 35.4930 140.7070 211° Southwest 235 270 3,600  Level FlightAware ADS-B
Fri 02:29:02 AM 35.4830 140.6950 224° Southwest 235 270 3,600  Level FlightAware ADS-B
Fri 02:29:31 AM 35.4650 140.6590 238° Southwest 237 273 3,600  Level FlightAware ADS-B
Fri 02:30:02 AM 35.4730 140.6210 285° West 210 242 3,600  Level FlightAware ADS-B
Fri 02:30:21 AM 35.4820 140.6020 300° West 208 239 3,600  Level FlightAware ADS-B
Fri 02:30:42 AM 35.4910 140.5810 298° West 195 224 3,600  Level FlightAware ADS-B
Fri 02:30:50 AM 35.4960 140.5720 304° West 189 217 3,600  Level FlightAware ADS-B
Fri 02:30:58 AM 35.5000 140.5660 309° West 185 213 3,600  Level FlightAware ADS-B
Fri 02:31:18 AM 35.5130 140.5560 328° Northwest 178 205 3,600  Level FlightAware ADS-B
Fri 02:31:38 AM 35.5280 140.5450 329° Northwest 173 199 3,600  Level FlightAware ADS-B
Fri 02:31:54 AM 35.5390 140.5380 333° Northwest 176 203 3,600  Level FlightAware ADS-B
Fri 02:32:14 AM 35.5540 140.5270 329° Northwest 176 203 3,600  Level FlightAware ADS-B
Fri 02:32:34 AM 35.5680 140.5170 330° Northwest 174 200 3,600 -150 Level FlightAware ADS-B
Fri 02:32:54 AM 35.5810 140.5080 331° Northwest 159 183 3,500 -682 Descending FlightAware ADS-B
Fri 02:33:18 AM 35.5960 140.4970 329° Northwest 150 173 3,100 -955 Descending FlightAware ADS-B
Fri 02:33:38 AM 35.6070 140.4890 329° Northwest 147 169 2,800 -900 Descending FlightAware ADS-B
Fri 02:33:58 AM 35.6190 140.4800 329° Northwest 147 169 2,500 -750 Descending FlightAware ADS-B
Fri 02:34:18 AM 35.6290 140.4730 330° Northwest 147 169 2,300 -686 Descending FlightAware ADS-B
Fri 02:34:33 AM 35.6390 140.4660 330° Northwest 145 167 2,100 -833 Descending FlightAware ADS-B
Fri 02:34:54 AM 35.6520 140.4570 331° Northwest 145 167 1,800 -811 Descending FlightAware ADS-B
Fri 02:35:10 AM 35.6610 140.4500 328° Northwest 144 166 1,600 -833 Descending FlightAware ADS-B
Fri 02:35:30 AM 35.6730 140.4410 329° Northwest 143 165 1,300 -750 Descending FlightAware ADS-B
Fri 02:35:50 AM 35.6840 140.4340 333° Northwest 143 165 1,100 -750 Descending FlightAware ADS-B
Fri 02:36:10 AM 35.6950 140.4250 326° Northwest 142 163 800 -750 Descending FlightAware ADS-B
Fri 02:36:30 AM 35.7060 140.4180 333° Northwest 143 165 600 -818 Descending FlightAware ADS-B
Fri 02:36:54 AM 35.7210 140.4070 329° Northwest 142 163 200 -1,000 Descending FlightAware ADS-B
Fri 02:37:14 AM 35.7320 140.3990 329° Northwest 142 163 -600 Descending FlightAware ADS-B
Fri 02:37:28 AM 35.7400 140.3930 329° Northwest 143 165  Level FlightAware ADS-B
Fri 02:37:53 AM 35.7520 140.3840 329° Northwest 143 165  Level FlightAware ADS-B

Login

Don't have an account? Register now (free) for customized features, flight alerts, and more!